<?xml version="1.0" encoding="UTF-8" standalone="no" ?>
<gpx xmlns="http://www.topografix.com/GPX/1/1" creator="CompeGPS" version="1.1" xmlns:xsi="http://www.w3.org/2001/XMLSchema-instance" xsi:schemaLocation="http://www.topografix.com/GPX/1/1 http://www.topografix.com/GPX/1/1/gpx.xsd http://www.garmin.com/xmlschemas/GpxExtensions/v3 http://www.garmin.com/xmlschemas/GpxExtensionsv3.xsd http://www.garmin.com/xmlschemas/TrackPointExtension/v1 http://www.garmin.com/xmlschemas/TrackPointExtensionv1.xsd" xmlns:gpxtpx="http://www.garmin.com/xmlschemas/TrackPointExtension/v1">
  <metadata>
    <link href="http://www.compegps.com">
      <text>CompeGPS TEAM, SL</text>
    </link>
    <time>2020-02-29T12:53:30Z</time>
    <bounds maxlat="42.560236" maxlon="1.766742" minlat="42.531368" minlon="1.748877"/>
  </metadata>
    <wpt lat="42.560215" lon="1.764697">
    <ele>1877.6</ele>
    <time>2020-02-29T12:54:02Z</time>
    <name>Depart</name>
    <desc></desc>
    <sym>Waypoint</sym>
  </wpt>
  <wpt lat="42.555779" lon="1.766661">
    <ele>1908.1</ele>
    <time>2020-02-29T12:56:47Z</time>
    <name>Rec del Baladrar</name>
    <desc></desc>
    <sym>Waypoint</sym>
  </wpt>
  <wpt lat="42.540833" lon="1.750175">
    <ele>2419.9</ele>
    <time>2020-02-29T12:54:39Z</time>
    <name>Replat - crete Nord</name>
    <desc></desc>
    <sym>Waypoint</sym>
  </wpt>
  <wpt lat="42.533573" lon="1.751246">
    <ele>2635.1</ele>
    <time>2020-02-29T12:55:29Z</time>
    <name>Pointe inferieure</name>
    <desc></desc>
    <sym>Waypoint</sym>
  </wpt>
  <wpt lat="42.531368" lon="1.752345">
    <ele>2646.1</ele>
    <time>2020-02-29T12:55:48Z</time>
    <name>Pic dels Pedrons</name>
    <desc></desc>
    <sym>Waypoint</sym>
  </wpt>
<trk>
    <name>pedrons</name>
    <userMyTwoNav></userMyTwoNav>
    <serialNumber></serialNumber>
    <trkseg>
      <trkpt lat="42.560215" lon="1.764697">
        <ele>1911.7</ele>
        <time>2020-02-23T08:49:33Z</time>
      </trkpt>
      <trkpt lat="42.560146" lon="1.764755">
        <ele>1903.4</ele>
        <time>2020-02-23T08:50:32Z</time>
      </trkpt>
      <trkpt lat="42.560060" lon="1.764778">
        <ele>1906.6</ele>
        <time>2020-02-23T08:50:57Z</time>
      </trkpt>
      <trkpt lat="42.559981" lon="1.764825">
        <ele>1912.2</ele>
        <time>2020-02-23T08:51:22Z</time>
      </trkpt>
      <trkpt lat="42.559893" lon="1.764887">
        <ele>1914.6</ele>
        <time>2020-02-23T08:51:46Z</time>
      </trkpt>
      <trkpt lat="42.559823" lon="1.764966">
        <ele>1917.3</ele>
        <time>2020-02-23T08:52:09Z</time>
      </trkpt>
      <trkpt lat="42.559738" lon="1.765022">
        <ele>1920.7</ele>
        <time>2020-02-23T08:52:34Z</time>
      </trkpt>
      <trkpt lat="42.559723" lon="1.765130">
        <ele>1922.2</ele>
        <time>2020-02-23T08:52:53Z</time>
      </trkpt>
      <trkpt lat="42.559709" lon="1.765246">
        <ele>1924.7</ele>
        <time>2020-02-23T08:53:11Z</time>
      </trkpt>
      <trkpt lat="42.559625" lon="1.765277">
        <ele>1926.4</ele>
        <time>2020-02-23T08:53:37Z</time>
      </trkpt>
      <trkpt lat="42.559542" lon="1.765272">
        <ele>1927.3</ele>
        <time>2020-02-23T08:54:01Z</time>
      </trkpt>
      <trkpt lat="42.559430" lon="1.765262">
        <ele>1929.8</ele>
        <time>2020-02-23T08:54:15Z</time>
      </trkpt>
      <trkpt lat="42.559330" lon="1.765266">
        <ele>1933.6</ele>
        <time>2020-02-23T08:54:31Z</time>
      </trkpt>
      <trkpt lat="42.559223" lon="1.765296">
        <ele>1936.0</ele>
        <time>2020-02-23T08:54:49Z</time>
      </trkpt>
      <trkpt lat="42.559131" lon="1.765343">
        <ele>1937.6</ele>
        <time>2020-02-23T08:55:04Z</time>
      </trkpt>
      <trkpt lat="42.559038" lon="1.765388">
        <ele>1938.6</ele>
        <time>2020-02-23T08:55:27Z</time>
      </trkpt>
      <trkpt lat="42.558954" lon="1.765466">
        <ele>1940.1</ele>
        <time>2020-02-23T08:55:39Z</time>
      </trkpt>
      <trkpt lat="42.558861" lon="1.765520">
        <ele>1943.5</ele>
        <time>2020-02-23T08:55:57Z</time>
      </trkpt>
      <trkpt lat="42.558777" lon="1.765571">
        <ele>1948.5</ele>
        <time>2020-02-23T08:56:17Z</time>
      </trkpt>
      <trkpt lat="42.558701" lon="1.765602">
        <ele>1949.8</ele>
        <time>2020-02-23T08:56:47Z</time>
      </trkpt>
      <trkpt lat="42.558688" lon="1.765689">
        <ele>1945.2</ele>
        <time>2020-02-23T08:57:05Z</time>
      </trkpt>
      <trkpt lat="42.558608" lon="1.765763">
        <ele>1942.5</ele>
        <time>2020-02-23T08:57:19Z</time>
      </trkpt>
      <trkpt lat="42.558524" lon="1.765845">
        <ele>1940.9</ele>
        <time>2020-02-23T08:57:30Z</time>
      </trkpt>
      <trkpt lat="42.558451" lon="1.765924">
        <ele>1938.0</ele>
        <time>2020-02-23T08:57:42Z</time>
      </trkpt>
      <trkpt lat="42.558357" lon="1.765967">
        <ele>1936.5</ele>
        <time>2020-02-23T08:57:56Z</time>
      </trkpt>
      <trkpt lat="42.558263" lon="1.765968">
        <ele>1935.3</ele>
        <time>2020-02-23T09:02:28Z</time>
      </trkpt>
      <trkpt lat="42.558168" lon="1.765992">
        <ele>1935.4</ele>
        <time>2020-02-23T09:02:48Z</time>
      </trkpt>
      <trkpt lat="42.558071" lon="1.766043">
        <ele>1935.4</ele>
        <time>2020-02-23T09:02:57Z</time>
      </trkpt>
      <trkpt lat="42.557987" lon="1.766099">
        <ele>1932.9</ele>
        <time>2020-02-23T09:03:05Z</time>
      </trkpt>
      <trkpt lat="42.557901" lon="1.766166">
        <ele>1930.0</ele>
        <time>2020-02-23T09:03:14Z</time>
      </trkpt>
      <trkpt lat="42.557814" lon="1.766229">
        <ele>1927.1</ele>
        <time>2020-02-23T09:03:23Z</time>
      </trkpt>
      <trkpt lat="42.557721" lon="1.766236">
        <ele>1926.3</ele>
        <time>2020-02-23T09:03:32Z</time>
      </trkpt>
      <trkpt lat="42.557622" lon="1.766255">
        <ele>1925.6</ele>
        <time>2020-02-23T09:03:43Z</time>
      </trkpt>
      <trkpt lat="42.557539" lon="1.766319">
        <ele>1923.8</ele>
        <time>2020-02-23T09:03:52Z</time>
      </trkpt>
      <trkpt lat="42.557435" lon="1.766357">
        <ele>1921.3</ele>
        <time>2020-02-23T09:04:01Z</time>
      </trkpt>
      <trkpt lat="42.557358" lon="1.766403">
        <ele>1918.9</ele>
        <time>2020-02-23T09:04:09Z</time>
      </trkpt>
      <trkpt lat="42.557346" lon="1.766502">
        <ele>1916.0</ele>
        <time>2020-02-23T09:04:19Z</time>
      </trkpt>
      <trkpt lat="42.557264" lon="1.766586">
        <ele>1912.7</ele>
        <time>2020-02-23T09:04:28Z</time>
      </trkpt>
      <trkpt lat="42.557166" lon="1.766642">
        <ele>1910.6</ele>
        <time>2020-02-23T09:04:38Z</time>
      </trkpt>
      <trkpt lat="42.557086" lon="1.766691">
        <ele>1907.6</ele>
        <time>2020-02-23T09:04:46Z</time>
      </trkpt>
      <trkpt lat="42.556994" lon="1.766742">
        <ele>1906.9</ele>
        <time>2020-02-23T09:04:54Z</time>
      </trkpt>
      <trkpt lat="42.556914" lon="1.766726">
        <ele>1904.2</ele>
        <time>2020-02-23T09:05:02Z</time>
      </trkpt>
      <trkpt lat="42.556815" lon="1.766714">
        <ele>1904.3</ele>
        <time>2020-02-23T09:05:10Z</time>
      </trkpt>
      <trkpt lat="42.556727" lon="1.766728">
        <ele>1904.4</ele>
        <time>2020-02-23T09:05:19Z</time>
      </trkpt>
      <trkpt lat="42.556632" lon="1.766721">
        <ele>1904.4</ele>
        <time>2020-02-23T09:05:28Z</time>
      </trkpt>
      <trkpt lat="42.556537" lon="1.766706">
        <ele>1903.7</ele>
        <time>2020-02-23T09:05:36Z</time>
      </trkpt>
      <trkpt lat="42.556445" lon="1.766697">
        <ele>1902.1</ele>
        <time>2020-02-23T09:05:44Z</time>
      </trkpt>
      <trkpt lat="42.556346" lon="1.766709">
        <ele>1902.2</ele>
        <time>2020-02-23T09:05:52Z</time>
      </trkpt>
      <trkpt lat="42.556253" lon="1.766724">
        <ele>1902.2</ele>
        <time>2020-02-23T09:06:00Z</time>
      </trkpt>
      <trkpt lat="42.556160" lon="1.766723">
        <ele>1902.2</ele>
        <time>2020-02-23T09:06:10Z</time>
      </trkpt>
      <trkpt lat="42.556069" lon="1.766715">
        <ele>1902.2</ele>
        <time>2020-02-23T09:06:20Z</time>
      </trkpt>
      <trkpt lat="42.555985" lon="1.766711">
        <ele>1902.2</ele>
        <time>2020-02-23T09:06:31Z</time>
      </trkpt>
      <trkpt lat="42.555884" lon="1.766687">
        <ele>1902.2</ele>
        <time>2020-02-23T09:06:42Z</time>
      </trkpt>
      <trkpt lat="42.555779" lon="1.766661">
        <ele>1902.2</ele>
        <time>2020-02-23T09:07:14Z</time>
      </trkpt>
      <trkpt lat="42.555742" lon="1.766619">
        <ele>1902.1</ele>
        <time>2020-02-23T09:08:22Z</time>
      </trkpt>
      <trkpt lat="42.555653" lon="1.766552">
        <ele>1904.7</ele>
        <time>2020-02-23T09:08:33Z</time>
      </trkpt>
      <trkpt lat="42.555577" lon="1.766494">
        <ele>1906.2</ele>
        <time>2020-02-23T09:08:42Z</time>
      </trkpt>
      <trkpt lat="42.555483" lon="1.766452">
        <ele>1906.9</ele>
        <time>2020-02-23T09:08:53Z</time>
      </trkpt>
      <trkpt lat="42.555409" lon="1.766369">
        <ele>1907.7</ele>
        <time>2020-02-23T09:09:06Z</time>
      </trkpt>
      <trkpt lat="42.555326" lon="1.766299">
        <ele>1909.4</ele>
        <time>2020-02-23T09:09:19Z</time>
      </trkpt>
      <trkpt lat="42.555258" lon="1.766219">
        <ele>1911.2</ele>
        <time>2020-02-23T09:09:30Z</time>
      </trkpt>
      <trkpt lat="42.555202" lon="1.766095">
        <ele>1913.6</ele>
        <time>2020-02-23T09:09:43Z</time>
      </trkpt>
      <trkpt lat="42.555124" lon="1.765998">
        <ele>1915.2</ele>
        <time>2020-02-23T09:09:56Z</time>
      </trkpt>
      <trkpt lat="42.555040" lon="1.765956">
        <ele>1916.2</ele>
        <time>2020-02-23T09:10:08Z</time>
      </trkpt>
      <trkpt lat="42.554964" lon="1.765874">
        <ele>1917.7</ele>
        <time>2020-02-23T09:10:21Z</time>
      </trkpt>
      <trkpt lat="42.554891" lon="1.765776">
        <ele>1918.6</ele>
        <time>2020-02-23T09:10:33Z</time>
      </trkpt>
      <trkpt lat="42.554811" lon="1.765713">
        <ele>1919.4</ele>
        <time>2020-02-23T09:10:46Z</time>
      </trkpt>
      <trkpt lat="42.554722" lon="1.765632">
        <ele>1921.0</ele>
        <time>2020-02-23T09:10:59Z</time>
      </trkpt>
      <trkpt lat="42.554653" lon="1.765529">
        <ele>1921.1</ele>
        <time>2020-02-23T09:11:11Z</time>
      </trkpt>
      <trkpt lat="42.554569" lon="1.765490">
        <ele>1921.1</ele>
        <time>2020-02-23T09:11:23Z</time>
      </trkpt>
      <trkpt lat="42.554471" lon="1.765475">
        <ele>1922.0</ele>
        <time>2020-02-23T09:11:35Z</time>
      </trkpt>
      <trkpt lat="42.554375" lon="1.765446">
        <ele>1921.9</ele>
        <time>2020-02-23T09:11:44Z</time>
      </trkpt>
      <trkpt lat="42.554269" lon="1.765430">
        <ele>1922.0</ele>
        <time>2020-02-23T09:11:55Z</time>
      </trkpt>
      <trkpt lat="42.554177" lon="1.765409">
        <ele>1922.1</ele>
        <time>2020-02-23T09:12:06Z</time>
      </trkpt>
      <trkpt lat="42.554067" lon="1.765375">
        <ele>1923.8</ele>
        <time>2020-02-23T09:12:20Z</time>
      </trkpt>
      <trkpt lat="42.553968" lon="1.765335">
        <ele>1924.7</ele>
        <time>2020-02-23T09:12:36Z</time>
      </trkpt>
      <trkpt lat="42.553869" lon="1.765283">
        <ele>1926.5</ele>
        <time>2020-02-23T09:12:52Z</time>
      </trkpt>
      <trkpt lat="42.553763" lon="1.765243">
        <ele>1928.2</ele>
        <time>2020-02-23T09:13:07Z</time>
      </trkpt>
      <trkpt lat="42.553652" lon="1.765198">
        <ele>1928.1</ele>
        <time>2020-02-23T09:13:18Z</time>
      </trkpt>
      <trkpt lat="42.553549" lon="1.765174">
        <ele>1930.1</ele>
        <time>2020-02-23T09:13:32Z</time>
      </trkpt>
      <trkpt lat="42.553449" lon="1.765130">
        <ele>1931.9</ele>
        <time>2020-02-23T09:13:45Z</time>
      </trkpt>
      <trkpt lat="42.553348" lon="1.765099">
        <ele>1934.5</ele>
        <time>2020-02-23T09:13:58Z</time>
      </trkpt>
      <trkpt lat="42.553261" lon="1.765036">
        <ele>1935.3</ele>
        <time>2020-02-23T09:14:10Z</time>
      </trkpt>
      <trkpt lat="42.553169" lon="1.764965">
        <ele>1936.9</ele>
        <time>2020-02-23T09:14:24Z</time>
      </trkpt>
      <trkpt lat="42.553092" lon="1.764877">
        <ele>1938.4</ele>
        <time>2020-02-23T09:14:42Z</time>
      </trkpt>
      <trkpt lat="42.553020" lon="1.764789">
        <ele>1939.3</ele>
        <time>2020-02-23T09:14:54Z</time>
      </trkpt>
      <trkpt lat="42.552944" lon="1.764706">
        <ele>1939.3</ele>
        <time>2020-02-23T09:15:05Z</time>
      </trkpt>
      <trkpt lat="42.552856" lon="1.764650">
        <ele>1939.3</ele>
        <time>2020-02-23T09:15:15Z</time>
      </trkpt>
      <trkpt lat="42.552767" lon="1.764608">
        <ele>1940.0</ele>
        <time>2020-02-23T09:15:26Z</time>
      </trkpt>
      <trkpt lat="42.552686" lon="1.764521">
        <ele>1940.9</ele>
        <time>2020-02-23T09:15:39Z</time>
      </trkpt>
      <trkpt lat="42.552608" lon="1.764414">
        <ele>1942.6</ele>
        <time>2020-02-23T09:15:54Z</time>
      </trkpt>
      <trkpt lat="42.552531" lon="1.764360">
        <ele>1944.3</ele>
        <time>2020-02-23T09:16:08Z</time>
      </trkpt>
      <trkpt lat="42.552444" lon="1.764328">
        <ele>1944.3</ele>
        <time>2020-02-23T09:16:21Z</time>
      </trkpt>
      <trkpt lat="42.552348" lon="1.764278">
        <ele>1946.0</ele>
        <time>2020-02-23T09:16:35Z</time>
      </trkpt>
      <trkpt lat="42.552274" lon="1.764205">
        <ele>1948.5</ele>
        <time>2020-02-23T09:16:49Z</time>
      </trkpt>
      <trkpt lat="42.552190" lon="1.764130">
        <ele>1950.9</ele>
        <time>2020-02-23T09:17:04Z</time>
      </trkpt>
      <trkpt lat="42.552111" lon="1.764063">
        <ele>1952.4</ele>
        <time>2020-02-23T09:17:18Z</time>
      </trkpt>
      <trkpt lat="42.552017" lon="1.764036">
        <ele>1953.3</ele>
        <time>2020-02-23T09:17:32Z</time>
      </trkpt>
      <trkpt lat="42.551959" lon="1.764056">
        <ele>1954.0</ele>
        <time>2020-02-23T09:18:08Z</time>
      </trkpt>
      <trkpt lat="42.551867" lon="1.764004">
        <ele>1955.7</ele>
        <time>2020-02-23T09:18:20Z</time>
      </trkpt>
      <trkpt lat="42.551785" lon="1.763951">
        <ele>1958.0</ele>
        <time>2020-02-23T09:18:34Z</time>
      </trkpt>
      <trkpt lat="42.551698" lon="1.763890">
        <ele>1958.9</ele>
        <time>2020-02-23T09:18:45Z</time>
      </trkpt>
      <trkpt lat="42.551628" lon="1.763814">
        <ele>1960.5</ele>
        <time>2020-02-23T09:18:56Z</time>
      </trkpt>
      <trkpt lat="42.551541" lon="1.763786">
        <ele>1962.2</ele>
        <time>2020-02-23T09:19:09Z</time>
      </trkpt>
      <trkpt lat="42.551449" lon="1.763750">
        <ele>1964.0</ele>
        <time>2020-02-23T09:19:22Z</time>
      </trkpt>
      <trkpt lat="42.551366" lon="1.763686">
        <ele>1965.7</ele>
        <time>2020-02-23T09:19:36Z</time>
      </trkpt>
      <trkpt lat="42.551281" lon="1.763632">
        <ele>1967.3</ele>
        <time>2020-02-23T09:19:49Z</time>
      </trkpt>
      <trkpt lat="42.551212" lon="1.763567">
        <ele>1970.6</ele>
        <time>2020-02-23T09:20:05Z</time>
      </trkpt>
      <trkpt lat="42.551131" lon="1.763554">
        <ele>1971.2</ele>
        <time>2020-02-23T09:20:18Z</time>
      </trkpt>
      <trkpt lat="42.551039" lon="1.763545">
        <ele>1973.5</ele>
        <time>2020-02-23T09:20:34Z</time>
      </trkpt>
      <trkpt lat="42.550948" lon="1.763523">
        <ele>1973.4</ele>
        <time>2020-02-23T09:20:47Z</time>
      </trkpt>
      <trkpt lat="42.550845" lon="1.763533">
        <ele>1976.2</ele>
        <time>2020-02-23T09:21:03Z</time>
      </trkpt>
      <trkpt lat="42.550744" lon="1.763525">
        <ele>1977.0</ele>
        <time>2020-02-23T09:21:18Z</time>
      </trkpt>
      <trkpt lat="42.550644" lon="1.763494">
        <ele>1979.7</ele>
        <time>2020-02-23T09:21:34Z</time>
      </trkpt>
      <trkpt lat="42.550557" lon="1.763441">
        <ele>1981.2</ele>
        <time>2020-02-23T09:21:49Z</time>
      </trkpt>
      <trkpt lat="42.550467" lon="1.763431">
        <ele>1982.0</ele>
        <time>2020-02-23T09:22:01Z</time>
      </trkpt>
      <trkpt lat="42.550381" lon="1.763406">
        <ele>1981.9</ele>
        <time>2020-02-23T09:22:13Z</time>
      </trkpt>
      <trkpt lat="42.550266" lon="1.763395">
        <ele>1982.7</ele>
        <time>2020-02-23T09:22:29Z</time>
      </trkpt>
      <trkpt lat="42.550165" lon="1.763391">
        <ele>1985.1</ele>
        <time>2020-02-23T09:22:47Z</time>
      </trkpt>
      <trkpt lat="42.550052" lon="1.763421">
        <ele>1985.9</ele>
        <time>2020-02-23T09:23:02Z</time>
      </trkpt>
      <trkpt lat="42.549947" lon="1.763433">
        <ele>1987.5</ele>
        <time>2020-02-23T09:23:16Z</time>
      </trkpt>
      <trkpt lat="42.549846" lon="1.763418">
        <ele>1989.3</ele>
        <time>2020-02-23T09:23:32Z</time>
      </trkpt>
      <trkpt lat="42.549756" lon="1.763358">
        <ele>1991.8</ele>
        <time>2020-02-23T09:23:48Z</time>
      </trkpt>
      <trkpt lat="42.549677" lon="1.763302">
        <ele>1994.7</ele>
        <time>2020-02-23T09:24:05Z</time>
      </trkpt>
      <trkpt lat="42.549607" lon="1.763211">
        <ele>1998.1</ele>
        <time>2020-02-23T09:24:30Z</time>
      </trkpt>
      <trkpt lat="42.549541" lon="1.763122">
        <ele>2000.8</ele>
        <time>2020-02-23T09:24:52Z</time>
      </trkpt>
      <trkpt lat="42.549451" lon="1.763062">
        <ele>2004.7</ele>
        <time>2020-02-23T09:25:12Z</time>
      </trkpt>
      <trkpt lat="42.549355" lon="1.763054">
        <ele>2005.4</ele>
        <time>2020-02-23T09:25:25Z</time>
      </trkpt>
      <trkpt lat="42.549263" lon="1.763054">
        <ele>2005.3</ele>
        <time>2020-02-23T09:25:37Z</time>
      </trkpt>
      <trkpt lat="42.549171" lon="1.763039">
        <ele>2007.5</ele>
        <time>2020-02-23T09:25:53Z</time>
      </trkpt>
      <trkpt lat="42.549063" lon="1.763028">
        <ele>2009.4</ele>
        <time>2020-02-23T09:26:08Z</time>
      </trkpt>
      <trkpt lat="42.548990" lon="1.763033">
        <ele>2009.3</ele>
        <time>2020-02-23T09:26:22Z</time>
      </trkpt>
      <trkpt lat="42.548908" lon="1.763055">
        <ele>2012.1</ele>
        <time>2020-02-23T09:26:40Z</time>
      </trkpt>
      <trkpt lat="42.548822" lon="1.763090">
        <ele>2013.8</ele>
        <time>2020-02-23T09:26:58Z</time>
      </trkpt>
      <trkpt lat="42.548739" lon="1.763045">
        <ele>2015.4</ele>
        <time>2020-02-23T09:27:20Z</time>
      </trkpt>
      <trkpt lat="42.548656" lon="1.762978">
        <ele>2017.0</ele>
        <time>2020-02-23T09:27:33Z</time>
      </trkpt>
      <trkpt lat="42.548560" lon="1.762983">
        <ele>2018.5</ele>
        <time>2020-02-23T09:27:48Z</time>
      </trkpt>
      <trkpt lat="42.548474" lon="1.762938">
        <ele>2020.6</ele>
        <time>2020-02-23T09:28:06Z</time>
      </trkpt>
      <trkpt lat="42.548399" lon="1.762865">
        <ele>2022.2</ele>
        <time>2020-02-23T09:28:21Z</time>
      </trkpt>
      <trkpt lat="42.548339" lon="1.762788">
        <ele>2024.0</ele>
        <time>2020-02-23T09:28:36Z</time>
      </trkpt>
      <trkpt lat="42.548247" lon="1.762777">
        <ele>2026.2</ele>
        <time>2020-02-23T09:28:51Z</time>
      </trkpt>
      <trkpt lat="42.548152" lon="1.762762">
        <ele>2027.2</ele>
        <time>2020-02-23T09:29:06Z</time>
      </trkpt>
      <trkpt lat="42.548072" lon="1.762749">
        <ele>2029.8</ele>
        <time>2020-02-23T09:29:23Z</time>
      </trkpt>
      <trkpt lat="42.547976" lon="1.762700">
        <ele>2030.6</ele>
        <time>2020-02-23T09:29:36Z</time>
      </trkpt>
      <trkpt lat="42.547890" lon="1.762684">
        <ele>2032.5</ele>
        <time>2020-02-23T09:29:51Z</time>
      </trkpt>
      <trkpt lat="42.547800" lon="1.762642">
        <ele>2034.0</ele>
        <time>2020-02-23T09:30:06Z</time>
      </trkpt>
      <trkpt lat="42.547716" lon="1.762606">
        <ele>2036.7</ele>
        <time>2020-02-23T09:30:25Z</time>
      </trkpt>
      <trkpt lat="42.547607" lon="1.762619">
        <ele>2037.5</ele>
        <time>2020-02-23T09:30:43Z</time>
      </trkpt>
      <trkpt lat="42.547511" lon="1.762584">
        <ele>2041.4</ele>
        <time>2020-02-23T09:31:02Z</time>
      </trkpt>
      <trkpt lat="42.547424" lon="1.762578">
        <ele>2043.0</ele>
        <time>2020-02-23T09:31:19Z</time>
      </trkpt>
      <trkpt lat="42.547340" lon="1.762525">
        <ele>2044.6</ele>
        <time>2020-02-23T09:31:36Z</time>
      </trkpt>
      <trkpt lat="42.547262" lon="1.762466">
        <ele>2046.5</ele>
        <time>2020-02-23T09:31:55Z</time>
      </trkpt>
      <trkpt lat="42.547179" lon="1.762457">
        <ele>2048.0</ele>
        <time>2020-02-23T09:32:11Z</time>
      </trkpt>
      <trkpt lat="42.547093" lon="1.762442">
        <ele>2050.5</ele>
        <time>2020-02-23T09:32:27Z</time>
      </trkpt>
      <trkpt lat="42.546997" lon="1.762411">
        <ele>2052.3</ele>
        <time>2020-02-23T09:32:48Z</time>
      </trkpt>
      <trkpt lat="42.546930" lon="1.762335">
        <ele>2054.2</ele>
        <time>2020-02-23T09:33:04Z</time>
      </trkpt>
      <trkpt lat="42.546853" lon="1.762273">
        <ele>2056.7</ele>
        <time>2020-02-23T09:33:23Z</time>
      </trkpt>
      <trkpt lat="42.546753" lon="1.762218">
        <ele>2058.2</ele>
        <time>2020-02-23T09:33:42Z</time>
      </trkpt>
      <trkpt lat="42.546683" lon="1.762131">
        <ele>2061.0</ele>
        <time>2020-02-23T09:34:01Z</time>
      </trkpt>
      <trkpt lat="42.546599" lon="1.762074">
        <ele>2062.7</ele>
        <time>2020-02-23T09:34:18Z</time>
      </trkpt>
      <trkpt lat="42.546509" lon="1.762077">
        <ele>2064.4</ele>
        <time>2020-02-23T09:34:37Z</time>
      </trkpt>
      <trkpt lat="42.546411" lon="1.762105">
        <ele>2066.2</ele>
        <time>2020-02-23T09:34:58Z</time>
      </trkpt>
      <trkpt lat="42.546328" lon="1.762086">
        <ele>2068.9</ele>
        <time>2020-02-23T09:35:15Z</time>
      </trkpt>
      <trkpt lat="42.546258" lon="1.761996">
        <ele>2072.6</ele>
        <time>2020-02-23T09:35:42Z</time>
      </trkpt>
      <trkpt lat="42.546198" lon="1.761919">
        <ele>2075.9</ele>
        <time>2020-02-23T09:36:27Z</time>
      </trkpt>
      <trkpt lat="42.546132" lon="1.761836">
        <ele>2078.6</ele>
        <time>2020-02-23T09:36:46Z</time>
      </trkpt>
      <trkpt lat="42.546062" lon="1.761757">
        <ele>2081.4</ele>
        <time>2020-02-23T09:37:06Z</time>
      </trkpt>
      <trkpt lat="42.545989" lon="1.761689">
        <ele>2084.0</ele>
        <time>2020-02-23T09:37:30Z</time>
      </trkpt>
      <trkpt lat="42.545920" lon="1.761649">
        <ele>2085.5</ele>
        <time>2020-02-23T09:37:49Z</time>
      </trkpt>
      <trkpt lat="42.545870" lon="1.761514">
        <ele>2087.4</ele>
        <time>2020-02-23T09:38:07Z</time>
      </trkpt>
      <trkpt lat="42.545884" lon="1.761369">
        <ele>2089.9</ele>
        <time>2020-02-23T09:38:28Z</time>
      </trkpt>
      <trkpt lat="42.545864" lon="1.761247">
        <ele>2092.3</ele>
        <time>2020-02-23T09:38:44Z</time>
      </trkpt>
      <trkpt lat="42.545856" lon="1.761205">
        <ele>2093.6</ele>
        <time>2020-02-23T09:39:05Z</time>
      </trkpt>
      <trkpt lat="42.545821" lon="1.761191">
        <ele>2095.2</ele>
        <time>2020-02-23T09:39:24Z</time>
      </trkpt>
      <trkpt lat="42.545772" lon="1.761044">
        <ele>2095.7</ele>
        <time>2020-02-23T09:39:43Z</time>
      </trkpt>
      <trkpt lat="42.545718" lon="1.760968">
        <ele>2097.3</ele>
        <time>2020-02-23T09:39:58Z</time>
      </trkpt>
      <trkpt lat="42.545664" lon="1.760859">
        <ele>2100.8</ele>
        <time>2020-02-23T09:40:18Z</time>
      </trkpt>
      <trkpt lat="42.545617" lon="1.760760">
        <ele>2104.2</ele>
        <time>2020-02-23T09:40:40Z</time>
      </trkpt>
      <trkpt lat="42.545541" lon="1.760611">
        <ele>2105.5</ele>
        <time>2020-02-23T09:40:56Z</time>
      </trkpt>
      <trkpt lat="42.545480" lon="1.760531">
        <ele>2108.0</ele>
        <time>2020-02-23T09:41:14Z</time>
      </trkpt>
      <trkpt lat="42.545429" lon="1.760489">
        <ele>2112.0</ele>
        <time>2020-02-23T09:41:40Z</time>
      </trkpt>
      <trkpt lat="42.545339" lon="1.760418">
        <ele>2113.9</ele>
        <time>2020-02-23T09:42:01Z</time>
      </trkpt>
      <trkpt lat="42.545319" lon="1.760425">
        <ele>2116.6</ele>
        <time>2020-02-23T09:42:22Z</time>
      </trkpt>
      <trkpt lat="42.545251" lon="1.760356">
        <ele>2118.7</ele>
        <time>2020-02-23T09:42:40Z</time>
      </trkpt>
      <trkpt lat="42.545229" lon="1.760294">
        <ele>2119.9</ele>
        <time>2020-02-23T09:43:41Z</time>
      </trkpt>
      <trkpt lat="42.545184" lon="1.760278">
        <ele>2119.5</ele>
        <time>2020-02-23T09:44:26Z</time>
      </trkpt>
      <trkpt lat="42.545168" lon="1.760288">
        <ele>2119.4</ele>
        <time>2020-02-23T09:45:16Z</time>
      </trkpt>
      <trkpt lat="42.545079" lon="1.760197">
        <ele>2120.3</ele>
        <time>2020-02-23T09:45:31Z</time>
      </trkpt>
      <trkpt lat="42.545023" lon="1.760134">
        <ele>2120.3</ele>
        <time>2020-02-23T09:45:47Z</time>
      </trkpt>
      <trkpt lat="42.544945" lon="1.760089">
        <ele>2122.2</ele>
        <time>2020-02-23T09:46:03Z</time>
      </trkpt>
      <trkpt lat="42.544864" lon="1.760045">
        <ele>2124.0</ele>
        <time>2020-02-23T09:46:20Z</time>
      </trkpt>
      <trkpt lat="42.544802" lon="1.760020">
        <ele>2127.3</ele>
        <time>2020-02-23T09:46:39Z</time>
      </trkpt>
      <trkpt lat="42.544723" lon="1.760008">
        <ele>2129.2</ele>
        <time>2020-02-23T09:46:59Z</time>
      </trkpt>
      <trkpt lat="42.544629" lon="1.759980">
        <ele>2131.6</ele>
        <time>2020-02-23T09:47:15Z</time>
      </trkpt>
      <trkpt lat="42.544599" lon="1.759921">
        <ele>2134.6</ele>
        <time>2020-02-23T09:47:39Z</time>
      </trkpt>
      <trkpt lat="42.544521" lon="1.759858">
        <ele>2137.5</ele>
        <time>2020-02-23T09:48:03Z</time>
      </trkpt>
      <trkpt lat="42.544444" lon="1.759774">
        <ele>2139.1</ele>
        <time>2020-02-23T09:48:22Z</time>
      </trkpt>
      <trkpt lat="42.544378" lon="1.759707">
        <ele>2141.8</ele>
        <time>2020-02-23T09:48:46Z</time>
      </trkpt>
      <trkpt lat="42.544299" lon="1.759642">
        <ele>2145.7</ele>
        <time>2020-02-23T09:49:11Z</time>
      </trkpt>
      <trkpt lat="42.544236" lon="1.759528">
        <ele>2147.8</ele>
        <time>2020-02-23T09:49:34Z</time>
      </trkpt>
      <trkpt lat="42.544154" lon="1.759458">
        <ele>2148.7</ele>
        <time>2020-02-23T09:49:52Z</time>
      </trkpt>
      <trkpt lat="42.544091" lon="1.759411">
        <ele>2151.2</ele>
        <time>2020-02-23T09:50:14Z</time>
      </trkpt>
      <trkpt lat="42.544029" lon="1.759319">
        <ele>2154.6</ele>
        <time>2020-02-23T09:50:38Z</time>
      </trkpt>
      <trkpt lat="42.543948" lon="1.759260">
        <ele>2157.8</ele>
        <time>2020-02-23T09:51:03Z</time>
      </trkpt>
      <trkpt lat="42.543865" lon="1.759224">
        <ele>2160.4</ele>
        <time>2020-02-23T09:51:29Z</time>
      </trkpt>
      <trkpt lat="42.543791" lon="1.759162">
        <ele>2163.9</ele>
        <time>2020-02-23T09:51:59Z</time>
      </trkpt>
      <trkpt lat="42.543743" lon="1.759068">
        <ele>2165.8</ele>
        <time>2020-02-23T09:52:22Z</time>
      </trkpt>
      <trkpt lat="42.543677" lon="1.759006">
        <ele>2169.1</ele>
        <time>2020-02-23T09:52:53Z</time>
      </trkpt>
      <trkpt lat="42.543616" lon="1.758939">
        <ele>2172.9</ele>
        <time>2020-02-23T09:53:20Z</time>
      </trkpt>
      <trkpt lat="42.543556" lon="1.758832">
        <ele>2176.2</ele>
        <time>2020-02-23T09:53:49Z</time>
      </trkpt>
      <trkpt lat="42.543497" lon="1.758742">
        <ele>2178.9</ele>
        <time>2020-02-23T09:54:15Z</time>
      </trkpt>
      <trkpt lat="42.543417" lon="1.758688">
        <ele>2184.1</ele>
        <time>2020-02-23T09:54:55Z</time>
      </trkpt>
      <trkpt lat="42.543358" lon="1.758631">
        <ele>2187.5</ele>
        <time>2020-02-23T09:55:27Z</time>
      </trkpt>
      <trkpt lat="42.543304" lon="1.758538">
        <ele>2192.9</ele>
        <time>2020-02-23T09:56:08Z</time>
      </trkpt>
      <trkpt lat="42.543216" lon="1.758511">
        <ele>2197.5</ele>
        <time>2020-02-23T09:56:36Z</time>
      </trkpt>
      <trkpt lat="42.543165" lon="1.758472">
        <ele>2200.5</ele>
        <time>2020-02-23T09:57:01Z</time>
      </trkpt>
      <trkpt lat="42.543090" lon="1.758366">
        <ele>2203.4</ele>
        <time>2020-02-23T09:57:22Z</time>
      </trkpt>
      <trkpt lat="42.543053" lon="1.758286">
        <ele>2205.2</ele>
        <time>2020-02-23T09:57:40Z</time>
      </trkpt>
      <trkpt lat="42.542998" lon="1.758180">
        <ele>2206.9</ele>
        <time>2020-02-23T09:58:04Z</time>
      </trkpt>
      <trkpt lat="42.542943" lon="1.758068">
        <ele>2209.4</ele>
        <time>2020-02-23T09:58:29Z</time>
      </trkpt>
      <trkpt lat="42.542903" lon="1.757949">
        <ele>2211.0</ele>
        <time>2020-02-23T09:58:49Z</time>
      </trkpt>
      <trkpt lat="42.542884" lon="1.757888">
        <ele>2211.9</ele>
        <time>2020-02-23T09:59:08Z</time>
      </trkpt>
      <trkpt lat="42.542856" lon="1.757771">
        <ele>2213.7</ele>
        <time>2020-02-23T09:59:35Z</time>
      </trkpt>
      <trkpt lat="42.542814" lon="1.757651">
        <ele>2214.8</ele>
        <time>2020-02-23T10:00:04Z</time>
      </trkpt>
      <trkpt lat="42.542771" lon="1.757527">
        <ele>2216.6</ele>
        <time>2020-02-23T10:00:23Z</time>
      </trkpt>
      <trkpt lat="42.542723" lon="1.757411">
        <ele>2219.6</ele>
        <time>2020-02-23T10:00:48Z</time>
      </trkpt>
      <trkpt lat="42.542659" lon="1.757286">
        <ele>2220.5</ele>
        <time>2020-02-23T10:01:02Z</time>
      </trkpt>
      <trkpt lat="42.542608" lon="1.757177">
        <ele>2222.3</ele>
        <time>2020-02-23T10:01:21Z</time>
      </trkpt>
      <trkpt lat="42.542543" lon="1.757060">
        <ele>2222.3</ele>
        <time>2020-02-23T10:01:35Z</time>
      </trkpt>
      <trkpt lat="42.542475" lon="1.756983">
        <ele>2222.4</ele>
        <time>2020-02-23T10:01:51Z</time>
      </trkpt>
      <trkpt lat="42.542429" lon="1.756847">
        <ele>2223.6</ele>
        <time>2020-02-23T10:02:14Z</time>
      </trkpt>
      <trkpt lat="42.542354" lon="1.756749">
        <ele>2226.3</ele>
        <time>2020-02-23T10:02:34Z</time>
      </trkpt>
      <trkpt lat="42.542279" lon="1.756666">
        <ele>2228.9</ele>
        <time>2020-02-23T10:03:01Z</time>
      </trkpt>
      <trkpt lat="42.542221" lon="1.756557">
        <ele>2232.4</ele>
        <time>2020-02-23T10:03:25Z</time>
      </trkpt>
      <trkpt lat="42.542151" lon="1.756456">
        <ele>2235.9</ele>
        <time>2020-02-23T10:03:49Z</time>
      </trkpt>
      <trkpt lat="42.542101" lon="1.756350">
        <ele>2238.5</ele>
        <time>2020-02-23T10:04:13Z</time>
      </trkpt>
      <trkpt lat="42.542044" lon="1.756243">
        <ele>2241.9</ele>
        <time>2020-02-23T10:04:41Z</time>
      </trkpt>
      <trkpt lat="42.541983" lon="1.756125">
        <ele>2245.2</ele>
        <time>2020-02-23T10:05:03Z</time>
      </trkpt>
      <trkpt lat="42.541923" lon="1.755989">
        <ele>2247.9</ele>
        <time>2020-02-23T10:05:24Z</time>
      </trkpt>
      <trkpt lat="42.541877" lon="1.755845">
        <ele>2249.9</ele>
        <time>2020-02-23T10:05:43Z</time>
      </trkpt>
      <trkpt lat="42.541836" lon="1.755767">
        <ele>2252.4</ele>
        <time>2020-02-23T10:06:31Z</time>
      </trkpt>
      <trkpt lat="42.541859" lon="1.755746">
        <ele>2252.6</ele>
        <time>2020-02-23T10:07:32Z</time>
      </trkpt>
      <trkpt lat="42.541783" lon="1.755613">
        <ele>2254.2</ele>
        <time>2020-02-23T10:09:12Z</time>
      </trkpt>
      <trkpt lat="42.541748" lon="1.755473">
        <ele>2255.1</ele>
        <time>2020-02-23T10:09:32Z</time>
      </trkpt>
      <trkpt lat="42.541718" lon="1.755325">
        <ele>2256.8</ele>
        <time>2020-02-23T10:09:56Z</time>
      </trkpt>
      <trkpt lat="42.541670" lon="1.755199">
        <ele>2258.5</ele>
        <time>2020-02-23T10:10:12Z</time>
      </trkpt>
      <trkpt lat="42.541673" lon="1.755053">
        <ele>2260.5</ele>
        <time>2020-02-23T10:10:33Z</time>
      </trkpt>
      <trkpt lat="42.541680" lon="1.754920">
        <ele>2261.3</ele>
        <time>2020-02-23T10:10:51Z</time>
      </trkpt>
      <trkpt lat="42.541682" lon="1.754799">
        <ele>2263.1</ele>
        <time>2020-02-23T10:11:07Z</time>
      </trkpt>
      <trkpt lat="42.541664" lon="1.754679">
        <ele>2266.7</ele>
        <time>2020-02-23T10:11:36Z</time>
      </trkpt>
      <trkpt lat="42.541631" lon="1.754567">
        <ele>2270.2</ele>
        <time>2020-02-23T10:12:06Z</time>
      </trkpt>
      <trkpt lat="42.541584" lon="1.754445">
        <ele>2273.6</ele>
        <time>2020-02-23T10:12:48Z</time>
      </trkpt>
      <trkpt lat="42.541546" lon="1.754301">
        <ele>2277.0</ele>
        <time>2020-02-23T10:13:24Z</time>
      </trkpt>
      <trkpt lat="42.541503" lon="1.754165">
        <ele>2278.7</ele>
        <time>2020-02-23T10:13:46Z</time>
      </trkpt>
      <trkpt lat="42.541454" lon="1.754060">
        <ele>2281.1</ele>
        <time>2020-02-23T10:14:07Z</time>
      </trkpt>
      <trkpt lat="42.541399" lon="1.753987">
        <ele>2284.6</ele>
        <time>2020-02-23T10:14:36Z</time>
      </trkpt>
      <trkpt lat="42.541331" lon="1.753912">
        <ele>2287.3</ele>
        <time>2020-02-23T10:15:17Z</time>
      </trkpt>
      <trkpt lat="42.541241" lon="1.753901">
        <ele>2291.3</ele>
        <time>2020-02-23T10:15:42Z</time>
      </trkpt>
      <trkpt lat="42.541152" lon="1.753908">
        <ele>2294.6</ele>
        <time>2020-02-23T10:16:10Z</time>
      </trkpt>
      <trkpt lat="42.541065" lon="1.753908">
        <ele>2298.1</ele>
        <time>2020-02-23T10:16:36Z</time>
      </trkpt>
      <trkpt lat="42.540980" lon="1.753859">
        <ele>2301.4</ele>
        <time>2020-02-23T10:17:01Z</time>
      </trkpt>
      <trkpt lat="42.540893" lon="1.753814">
        <ele>2305.6</ele>
        <time>2020-02-23T10:17:32Z</time>
      </trkpt>
      <trkpt lat="42.540839" lon="1.753730">
        <ele>2308.9</ele>
        <time>2020-02-23T10:20:07Z</time>
      </trkpt>
      <trkpt lat="42.540785" lon="1.753633">
        <ele>2311.8</ele>
        <time>2020-02-23T10:20:29Z</time>
      </trkpt>
      <trkpt lat="42.540730" lon="1.753523">
        <ele>2317.3</ele>
        <time>2020-02-23T10:21:05Z</time>
      </trkpt>
      <trkpt lat="42.540693" lon="1.753396">
        <ele>2321.6</ele>
        <time>2020-02-23T10:21:34Z</time>
      </trkpt>
      <trkpt lat="42.540656" lon="1.753280">
        <ele>2326.0</ele>
        <time>2020-02-23T10:22:04Z</time>
      </trkpt>
      <trkpt lat="42.540609" lon="1.753167">
        <ele>2329.3</ele>
        <time>2020-02-23T10:22:27Z</time>
      </trkpt>
      <trkpt lat="42.540561" lon="1.753102">
        <ele>2332.0</ele>
        <time>2020-02-23T10:23:07Z</time>
      </trkpt>
      <trkpt lat="42.540507" lon="1.752986">
        <ele>2334.7</ele>
        <time>2020-02-23T10:23:29Z</time>
      </trkpt>
      <trkpt lat="42.540497" lon="1.752843">
        <ele>2339.0</ele>
        <time>2020-02-23T10:23:52Z</time>
      </trkpt>
      <trkpt lat="42.540528" lon="1.752725">
        <ele>2341.5</ele>
        <time>2020-02-23T10:24:13Z</time>
      </trkpt>
      <trkpt lat="42.540599" lon="1.752651">
        <ele>2344.1</ele>
        <time>2020-02-23T10:24:30Z</time>
      </trkpt>
      <trkpt lat="42.540663" lon="1.752604">
        <ele>2346.9</ele>
        <time>2020-02-23T10:24:48Z</time>
      </trkpt>
      <trkpt lat="42.540701" lon="1.752504">
        <ele>2351.4</ele>
        <time>2020-02-23T10:25:12Z</time>
      </trkpt>
      <trkpt lat="42.540746" lon="1.752389">
        <ele>2354.6</ele>
        <time>2020-02-23T10:25:36Z</time>
      </trkpt>
      <trkpt lat="42.540822" lon="1.752327">
        <ele>2358.3</ele>
        <time>2020-02-23T10:25:58Z</time>
      </trkpt>
      <trkpt lat="42.540891" lon="1.752263">
        <ele>2362.1</ele>
        <time>2020-02-23T10:26:20Z</time>
      </trkpt>
      <trkpt lat="42.540931" lon="1.752168">
        <ele>2366.4</ele>
        <time>2020-02-23T10:26:46Z</time>
      </trkpt>
      <trkpt lat="42.540987" lon="1.752104">
        <ele>2370.0</ele>
        <time>2020-02-23T10:27:08Z</time>
      </trkpt>
      <trkpt lat="42.541049" lon="1.752018">
        <ele>2374.3</ele>
        <time>2020-02-23T10:27:34Z</time>
      </trkpt>
      <trkpt lat="42.541086" lon="1.751906">
        <ele>2377.0</ele>
        <time>2020-02-23T10:27:54Z</time>
      </trkpt>
      <trkpt lat="42.541108" lon="1.751787">
        <ele>2379.4</ele>
        <time>2020-02-23T10:28:17Z</time>
      </trkpt>
      <trkpt lat="42.541092" lon="1.751669">
        <ele>2384.1</ele>
        <time>2020-02-23T10:28:42Z</time>
      </trkpt>
      <trkpt lat="42.541062" lon="1.751554">
        <ele>2387.6</ele>
        <time>2020-02-23T10:29:07Z</time>
      </trkpt>
      <trkpt lat="42.541028" lon="1.751418">
        <ele>2394.6</ele>
        <time>2020-02-23T10:29:57Z</time>
      </trkpt>
      <trkpt lat="42.541021" lon="1.751284">
        <ele>2399.0</ele>
        <time>2020-02-23T10:30:24Z</time>
      </trkpt>
      <trkpt lat="42.541035" lon="1.751170">
        <ele>2403.4</ele>
        <time>2020-02-23T10:30:44Z</time>
      </trkpt>
      <trkpt lat="42.541058" lon="1.751063">
        <ele>2407.1</ele>
        <time>2020-02-23T10:31:09Z</time>
      </trkpt>
      <trkpt lat="42.541040" lon="1.750931">
        <ele>2413.2</ele>
        <time>2020-02-23T10:31:51Z</time>
      </trkpt>
      <trkpt lat="42.541037" lon="1.750795">
        <ele>2418.5</ele>
        <time>2020-02-23T10:32:24Z</time>
      </trkpt>
      <trkpt lat="42.541044" lon="1.750673">
        <ele>2423.3</ele>
        <time>2020-02-23T10:32:50Z</time>
      </trkpt>
      <trkpt lat="42.540996" lon="1.750573">
        <ele>2427.7</ele>
        <time>2020-02-23T10:33:21Z</time>
      </trkpt>
      <trkpt lat="42.540973" lon="1.750460">
        <ele>2432.2</ele>
        <time>2020-02-23T10:34:29Z</time>
      </trkpt>
      <trkpt lat="42.540915" lon="1.750361">
        <ele>2433.1</ele>
        <time>2020-02-23T10:34:45Z</time>
      </trkpt>
      <trkpt lat="42.540868" lon="1.750242">
        <ele>2433.9</ele>
        <time>2020-02-23T10:35:01Z</time>
      </trkpt>
      <trkpt lat="42.540864" lon="1.750192">
        <ele>2437.6</ele>
        <time>2020-02-23T10:42:21Z</time>
      </trkpt>
      <trkpt lat="42.540812" lon="1.750148">
        <ele>2437.8</ele>
        <time>2020-02-23T10:42:43Z</time>
      </trkpt>
      <trkpt lat="42.540723" lon="1.750086">
        <ele>2438.6</ele>
        <time>2020-02-23T10:42:56Z</time>
      </trkpt>
      <trkpt lat="42.540637" lon="1.750019">
        <ele>2439.5</ele>
        <time>2020-02-23T10:43:08Z</time>
      </trkpt>
      <trkpt lat="42.540558" lon="1.749956">
        <ele>2439.5</ele>
        <time>2020-02-23T10:43:17Z</time>
      </trkpt>
      <trkpt lat="42.540464" lon="1.749912">
        <ele>2439.6</ele>
        <time>2020-02-23T10:43:30Z</time>
      </trkpt>
      <trkpt lat="42.540372" lon="1.749868">
        <ele>2440.5</ele>
        <time>2020-02-23T10:43:44Z</time>
      </trkpt>
      <trkpt lat="42.540298" lon="1.749803">
        <ele>2441.4</ele>
        <time>2020-02-23T10:43:57Z</time>
      </trkpt>
      <trkpt lat="42.540211" lon="1.749767">
        <ele>2443.1</ele>
        <time>2020-02-23T10:44:12Z</time>
      </trkpt>
      <trkpt lat="42.540137" lon="1.749693">
        <ele>2444.8</ele>
        <time>2020-02-23T10:44:31Z</time>
      </trkpt>
      <trkpt lat="42.540063" lon="1.749601">
        <ele>2445.8</ele>
        <time>2020-02-23T10:44:47Z</time>
      </trkpt>
      <trkpt lat="42.539979" lon="1.749527">
        <ele>2445.8</ele>
        <time>2020-02-23T10:44:59Z</time>
      </trkpt>
      <trkpt lat="42.539902" lon="1.749455">
        <ele>2446.7</ele>
        <time>2020-02-23T10:45:12Z</time>
      </trkpt>
      <trkpt lat="42.539821" lon="1.749384">
        <ele>2447.7</ele>
        <time>2020-02-23T10:45:25Z</time>
      </trkpt>
      <trkpt lat="42.539742" lon="1.749312">
        <ele>2447.7</ele>
        <time>2020-02-23T10:45:37Z</time>
      </trkpt>
      <trkpt lat="42.539655" lon="1.749257">
        <ele>2447.8</ele>
        <time>2020-02-23T10:45:49Z</time>
      </trkpt>
      <trkpt lat="42.539565" lon="1.749210">
        <ele>2447.9</ele>
        <time>2020-02-23T10:46:01Z</time>
      </trkpt>
      <trkpt lat="42.539476" lon="1.749165">
        <ele>2448.8</ele>
        <time>2020-02-23T10:46:14Z</time>
      </trkpt>
      <trkpt lat="42.539390" lon="1.749131">
        <ele>2449.8</ele>
        <time>2020-02-23T10:46:28Z</time>
      </trkpt>
      <trkpt lat="42.539297" lon="1.749093">
        <ele>2450.7</ele>
        <time>2020-02-23T10:46:44Z</time>
      </trkpt>
      <trkpt lat="42.539213" lon="1.749055">
        <ele>2453.2</ele>
        <time>2020-02-23T10:46:59Z</time>
      </trkpt>
      <trkpt lat="42.539125" lon="1.749027">
        <ele>2455.8</ele>
        <time>2020-02-23T10:47:16Z</time>
      </trkpt>
      <trkpt lat="42.539033" lon="1.749009">
        <ele>2457.6</ele>
        <time>2020-02-23T10:47:36Z</time>
      </trkpt>
      <trkpt lat="42.538952" lon="1.748979">
        <ele>2460.2</ele>
        <time>2020-02-23T10:47:55Z</time>
      </trkpt>
      <trkpt lat="42.538867" lon="1.748952">
        <ele>2462.9</ele>
        <time>2020-02-23T10:48:17Z</time>
      </trkpt>
      <trkpt lat="42.538779" lon="1.748920">
        <ele>2465.6</ele>
        <time>2020-02-23T10:48:41Z</time>
      </trkpt>
      <trkpt lat="42.538687" lon="1.748920">
        <ele>2469.0</ele>
        <time>2020-02-23T10:49:02Z</time>
      </trkpt>
      <trkpt lat="42.538598" lon="1.748901">
        <ele>2471.6</ele>
        <time>2020-02-23T10:49:23Z</time>
      </trkpt>
      <trkpt lat="42.538507" lon="1.748892">
        <ele>2474.2</ele>
        <time>2020-02-23T10:49:43Z</time>
      </trkpt>
      <trkpt lat="42.538428" lon="1.748877">
        <ele>2476.9</ele>
        <time>2020-02-23T10:50:03Z</time>
      </trkpt>
      <trkpt lat="42.538339" lon="1.748884">
        <ele>2479.5</ele>
        <time>2020-02-23T10:50:24Z</time>
      </trkpt>
      <trkpt lat="42.538254" lon="1.748923">
        <ele>2482.1</ele>
        <time>2020-02-23T10:50:44Z</time>
      </trkpt>
      <trkpt lat="42.538166" lon="1.748933">
        <ele>2484.9</ele>
        <time>2020-02-23T10:51:05Z</time>
      </trkpt>
      <trkpt lat="42.538075" lon="1.748929">
        <ele>2486.7</ele>
        <time>2020-02-23T10:51:26Z</time>
      </trkpt>
      <trkpt lat="42.537990" lon="1.748916">
        <ele>2489.5</ele>
        <time>2020-02-23T10:51:46Z</time>
      </trkpt>
      <trkpt lat="42.537899" lon="1.748916">
        <ele>2492.0</ele>
        <time>2020-02-23T10:52:06Z</time>
      </trkpt>
      <trkpt lat="42.537807" lon="1.748920">
        <ele>2494.5</ele>
        <time>2020-02-23T10:52:26Z</time>
      </trkpt>
      <trkpt lat="42.537720" lon="1.748912">
        <ele>2495.4</ele>
        <time>2020-02-23T10:52:44Z</time>
      </trkpt>
      <trkpt lat="42.537627" lon="1.748918">
        <ele>2498.9</ele>
        <time>2020-02-23T10:53:03Z</time>
      </trkpt>
      <trkpt lat="42.537537" lon="1.748920">
        <ele>2501.4</ele>
        <time>2020-02-23T10:53:20Z</time>
      </trkpt>
      <trkpt lat="42.537448" lon="1.748918">
        <ele>2503.3</ele>
        <time>2020-02-23T10:53:38Z</time>
      </trkpt>
      <trkpt lat="42.537365" lon="1.748947">
        <ele>2506.6</ele>
        <time>2020-02-23T10:54:01Z</time>
      </trkpt>
      <trkpt lat="42.537272" lon="1.748983">
        <ele>2509.1</ele>
        <time>2020-02-23T10:54:23Z</time>
      </trkpt>
      <trkpt lat="42.537178" lon="1.748987">
        <ele>2510.9</ele>
        <time>2020-02-23T10:54:43Z</time>
      </trkpt>
      <trkpt lat="42.537101" lon="1.749037">
        <ele>2513.5</ele>
        <time>2020-02-23T10:55:02Z</time>
      </trkpt>
      <trkpt lat="42.537008" lon="1.749071">
        <ele>2516.9</ele>
        <time>2020-02-23T10:55:23Z</time>
      </trkpt>
      <trkpt lat="42.536944" lon="1.749153">
        <ele>2519.5</ele>
        <time>2020-02-23T10:55:46Z</time>
      </trkpt>
      <trkpt lat="42.536899" lon="1.749261">
        <ele>2522.9</ele>
        <time>2020-02-23T10:56:08Z</time>
      </trkpt>
      <trkpt lat="42.536845" lon="1.749341">
        <ele>2525.6</ele>
        <time>2020-02-23T10:56:28Z</time>
      </trkpt>
      <trkpt lat="42.536771" lon="1.749412">
        <ele>2528.2</ele>
        <time>2020-02-23T10:56:52Z</time>
      </trkpt>
      <trkpt lat="42.536680" lon="1.749450">
        <ele>2532.0</ele>
        <time>2020-02-23T10:57:21Z</time>
      </trkpt>
      <trkpt lat="42.536578" lon="1.749484">
        <ele>2536.1</ele>
        <time>2020-02-23T10:57:45Z</time>
      </trkpt>
      <trkpt lat="42.536498" lon="1.749525">
        <ele>2539.6</ele>
        <time>2020-02-23T10:58:08Z</time>
      </trkpt>
      <trkpt lat="42.536408" lon="1.749553">
        <ele>2542.4</ele>
        <time>2020-02-23T10:58:34Z</time>
      </trkpt>
      <trkpt lat="42.536339" lon="1.749633">
        <ele>2546.4</ele>
        <time>2020-02-23T10:59:01Z</time>
      </trkpt>
      <trkpt lat="42.536270" lon="1.749677">
        <ele>2548.9</ele>
        <time>2020-02-23T10:59:39Z</time>
      </trkpt>
      <trkpt lat="42.536191" lon="1.749703">
        <ele>2552.3</ele>
        <time>2020-02-23T11:00:13Z</time>
      </trkpt>
      <trkpt lat="42.536112" lon="1.749731">
        <ele>2555.6</ele>
        <time>2020-02-23T11:00:37Z</time>
      </trkpt>
      <trkpt lat="42.536031" lon="1.749763">
        <ele>2557.3</ele>
        <time>2020-02-23T11:00:59Z</time>
      </trkpt>
      <trkpt lat="42.535941" lon="1.749806">
        <ele>2559.9</ele>
        <time>2020-02-23T11:01:16Z</time>
      </trkpt>
      <trkpt lat="42.535856" lon="1.749839">
        <ele>2563.2</ele>
        <time>2020-02-23T11:01:35Z</time>
      </trkpt>
      <trkpt lat="42.535770" lon="1.749879">
        <ele>2566.4</ele>
        <time>2020-02-23T11:01:51Z</time>
      </trkpt>
      <trkpt lat="42.535700" lon="1.749940">
        <ele>2569.8</ele>
        <time>2020-02-23T11:02:08Z</time>
      </trkpt>
      <trkpt lat="42.535613" lon="1.749980">
        <ele>2572.4</ele>
        <time>2020-02-23T11:02:24Z</time>
      </trkpt>
      <trkpt lat="42.535534" lon="1.750034">
        <ele>2575.9</ele>
        <time>2020-02-23T11:02:43Z</time>
      </trkpt>
      <trkpt lat="42.535446" lon="1.750044">
        <ele>2578.7</ele>
        <time>2020-02-23T11:03:04Z</time>
      </trkpt>
      <trkpt lat="42.535360" lon="1.750068">
        <ele>2582.9</ele>
        <time>2020-02-23T11:03:24Z</time>
      </trkpt>
      <trkpt lat="42.535275" lon="1.750095">
        <ele>2586.3</ele>
        <time>2020-02-23T11:03:46Z</time>
      </trkpt>
      <trkpt lat="42.535209" lon="1.750107">
        <ele>2589.8</ele>
        <time>2020-02-23T11:04:12Z</time>
      </trkpt>
      <trkpt lat="42.535132" lon="1.750144">
        <ele>2594.4</ele>
        <time>2020-02-23T11:04:41Z</time>
      </trkpt>
      <trkpt lat="42.535061" lon="1.750180">
        <ele>2600.0</ele>
        <time>2020-02-23T11:05:26Z</time>
      </trkpt>
      <trkpt lat="42.534975" lon="1.750228">
        <ele>2605.3</ele>
        <time>2020-02-23T11:06:10Z</time>
      </trkpt>
      <trkpt lat="42.534905" lon="1.750296">
        <ele>2612.2</ele>
        <time>2020-02-23T11:06:58Z</time>
      </trkpt>
      <trkpt lat="42.534878" lon="1.750407">
        <ele>2615.3</ele>
        <time>2020-02-23T11:07:27Z</time>
      </trkpt>
      <trkpt lat="42.534815" lon="1.750466">
        <ele>2619.6</ele>
        <time>2020-02-23T11:07:59Z</time>
      </trkpt>
      <trkpt lat="42.534735" lon="1.750513">
        <ele>2625.5</ele>
        <time>2020-02-23T11:08:33Z</time>
      </trkpt>
      <trkpt lat="42.534644" lon="1.750540">
        <ele>2630.6</ele>
        <time>2020-02-23T11:09:25Z</time>
      </trkpt>
      <trkpt lat="42.534546" lon="1.750578">
        <ele>2635.5</ele>
        <time>2020-02-23T11:10:03Z</time>
      </trkpt>
      <trkpt lat="42.534448" lon="1.750594">
        <ele>2640.7</ele>
        <time>2020-02-23T11:10:42Z</time>
      </trkpt>
      <trkpt lat="42.534358" lon="1.750654">
        <ele>2645.9</ele>
        <time>2020-02-23T11:11:23Z</time>
      </trkpt>
      <trkpt lat="42.534295" lon="1.750711">
        <ele>2647.6</ele>
        <time>2020-02-23T11:11:45Z</time>
      </trkpt>
      <trkpt lat="42.534269" lon="1.750776">
        <ele>2647.8</ele>
        <time>2020-02-23T11:12:45Z</time>
      </trkpt>
      <trkpt lat="42.534215" lon="1.750869">
        <ele>2650.4</ele>
        <time>2020-02-23T11:13:04Z</time>
      </trkpt>
      <trkpt lat="42.534162" lon="1.750941">
        <ele>2654.8</ele>
        <time>2020-02-23T11:13:28Z</time>
      </trkpt>
      <trkpt lat="42.534095" lon="1.751002">
        <ele>2657.6</ele>
        <time>2020-02-23T11:13:47Z</time>
      </trkpt>
      <trkpt lat="42.534019" lon="1.751065">
        <ele>2658.3</ele>
        <time>2020-02-23T11:14:11Z</time>
      </trkpt>
      <trkpt lat="42.534012" lon="1.751149">
        <ele>2659.0</ele>
        <time>2020-02-23T11:17:03Z</time>
      </trkpt>
      <trkpt lat="42.533985" lon="1.751182">
        <ele>2659.3</ele>
        <time>2020-02-23T11:18:30Z</time>
      </trkpt>
      <trkpt lat="42.533906" lon="1.751172">
        <ele>2659.6</ele>
        <time>2020-02-23T11:19:52Z</time>
      </trkpt>
      <trkpt lat="42.533824" lon="1.751200">
        <ele>2659.6</ele>
        <time>2020-02-23T11:20:03Z</time>
      </trkpt>
      <trkpt lat="42.533729" lon="1.751214">
        <ele>2656.6</ele>
        <time>2020-02-23T11:20:14Z</time>
      </trkpt>
      <trkpt lat="42.533634" lon="1.751238">
        <ele>2656.6</ele>
        <time>2020-02-23T11:20:26Z</time>
      </trkpt>
      <trkpt lat="42.533537" lon="1.751248">
        <ele>2656.7</ele>
        <time>2020-02-23T11:20:40Z</time>
      </trkpt>
      <trkpt lat="42.533440" lon="1.751228">
        <ele>2656.8</ele>
        <time>2020-02-23T11:20:56Z</time>
      </trkpt>
      <trkpt lat="42.533345" lon="1.751231">
        <ele>2659.9</ele>
        <time>2020-02-23T11:21:13Z</time>
      </trkpt>
      <trkpt lat="42.533256" lon="1.751200">
        <ele>2660.7</ele>
        <time>2020-02-23T11:21:28Z</time>
      </trkpt>
      <trkpt lat="42.533169" lon="1.751178">
        <ele>2663.4</ele>
        <time>2020-02-23T11:21:46Z</time>
      </trkpt>
      <trkpt lat="42.533087" lon="1.751174">
        <ele>2665.9</ele>
        <time>2020-02-23T11:22:01Z</time>
      </trkpt>
      <trkpt lat="42.533005" lon="1.751170">
        <ele>2666.7</ele>
        <time>2020-02-23T11:22:21Z</time>
      </trkpt>
      <trkpt lat="42.532920" lon="1.751163">
        <ele>2668.5</ele>
        <time>2020-02-23T11:22:38Z</time>
      </trkpt>
      <trkpt lat="42.532824" lon="1.751198">
        <ele>2673.3</ele>
        <time>2020-02-23T11:27:31Z</time>
      </trkpt>
      <trkpt lat="42.532763" lon="1.751279">
        <ele>2678.5</ele>
        <time>2020-02-23T11:28:09Z</time>
      </trkpt>
      <trkpt lat="42.532688" lon="1.751311">
        <ele>2684.8</ele>
        <time>2020-02-23T11:29:25Z</time>
      </trkpt>
      <trkpt lat="42.532662" lon="1.751365">
        <ele>2686.5</ele>
        <time>2020-02-23T11:31:00Z</time>
      </trkpt>
      <trkpt lat="42.532623" lon="1.751425">
        <ele>2686.6</ele>
        <time>2020-02-23T11:31:52Z</time>
      </trkpt>
      <trkpt lat="42.532565" lon="1.751477">
        <ele>2689.4</ele>
        <time>2020-02-23T11:33:03Z</time>
      </trkpt>
      <trkpt lat="42.532520" lon="1.751549">
        <ele>2690.2</ele>
        <time>2020-02-23T11:34:25Z</time>
      </trkpt>
      <trkpt lat="42.532441" lon="1.751584">
        <ele>2693.7</ele>
        <time>2020-02-23T11:35:49Z</time>
      </trkpt>
      <trkpt lat="42.532391" lon="1.751675">
        <ele>2695.5</ele>
        <time>2020-02-23T11:37:03Z</time>
      </trkpt>
      <trkpt lat="42.532329" lon="1.751746">
        <ele>2696.5</ele>
        <time>2020-02-23T11:37:43Z</time>
      </trkpt>
      <trkpt lat="42.532259" lon="1.751783">
        <ele>2699.1</ele>
        <time>2020-02-23T11:38:02Z</time>
      </trkpt>
      <trkpt lat="42.532192" lon="1.751835">
        <ele>2699.8</ele>
        <time>2020-02-23T11:38:26Z</time>
      </trkpt>
      <trkpt lat="42.532111" lon="1.751873">
        <ele>2699.9</ele>
        <time>2020-02-23T11:38:47Z</time>
      </trkpt>
      <trkpt lat="42.532034" lon="1.751932">
        <ele>2701.4</ele>
        <time>2020-02-23T11:39:32Z</time>
      </trkpt>
      <trkpt lat="42.531974" lon="1.751990">
        <ele>2701.6</ele>
        <time>2020-02-23T11:42:37Z</time>
      </trkpt>
      <trkpt lat="42.531893" lon="1.752040">
        <ele>2701.6</ele>
        <time>2020-02-23T11:42:53Z</time>
      </trkpt>
      <trkpt lat="42.531802" lon="1.752046">
        <ele>2701.6</ele>
        <time>2020-02-23T11:43:13Z</time>
      </trkpt>
      <trkpt lat="42.531722" lon="1.752099">
        <ele>2701.7</ele>
        <time>2020-02-23T11:43:41Z</time>
      </trkpt>
      <trkpt lat="42.531635" lon="1.752143">
        <ele>2704.2</ele>
        <time>2020-02-23T11:43:58Z</time>
      </trkpt>
      <trkpt lat="42.531538" lon="1.752179">
        <ele>2705.1</ele>
        <time>2020-02-23T11:44:12Z</time>
      </trkpt>
      <trkpt lat="42.531451" lon="1.752207">
        <ele>2705.0</ele>
        <time>2020-02-23T11:44:24Z</time>
      </trkpt>
      <trkpt lat="42.531389" lon="1.752291">
        <ele>2705.1</ele>
        <time>2020-02-23T11:44:40Z</time>
      </trkpt>
      <trkpt lat="42.531368" lon="1.752345">
        <ele>2707.4</ele>
        <time>2020-02-23T12:56:32Z</time>
      </trkpt>
      <trkpt lat="42.531415" lon="1.752284">
        <ele>2708.3</ele>
        <time>2020-02-23T12:58:16Z</time>
      </trkpt>
      <trkpt lat="42.531481" lon="1.752207">
        <ele>2708.3</ele>
        <time>2020-02-23T12:58:28Z</time>
      </trkpt>
      <trkpt lat="42.531568" lon="1.752182">
        <ele>2708.3</ele>
        <time>2020-02-23T12:58:40Z</time>
      </trkpt>
      <trkpt lat="42.531650" lon="1.752135">
        <ele>2708.3</ele>
        <time>2020-02-23T12:58:58Z</time>
      </trkpt>
      <trkpt lat="42.531734" lon="1.752105">
        <ele>2706.0</ele>
        <time>2020-02-23T12:59:35Z</time>
      </trkpt>
      <trkpt lat="42.531809" lon="1.752075">
        <ele>2704.4</ele>
        <time>2020-02-23T12:59:56Z</time>
      </trkpt>
      <trkpt lat="42.531893" lon="1.752036">
        <ele>2704.4</ele>
        <time>2020-02-23T13:00:17Z</time>
      </trkpt>
      <trkpt lat="42.531972" lon="1.751992">
        <ele>2704.4</ele>
        <time>2020-02-23T13:00:36Z</time>
      </trkpt>
      <trkpt lat="42.532064" lon="1.751946">
        <ele>2703.6</ele>
        <time>2020-02-23T13:00:52Z</time>
      </trkpt>
      <trkpt lat="42.532132" lon="1.751906">
        <ele>2703.6</ele>
        <time>2020-02-23T13:01:09Z</time>
      </trkpt>
      <trkpt lat="42.532206" lon="1.751862">
        <ele>2702.5</ele>
        <time>2020-02-23T13:01:23Z</time>
      </trkpt>
      <trkpt lat="42.532277" lon="1.751792">
        <ele>2702.6</ele>
        <time>2020-02-23T13:01:38Z</time>
      </trkpt>
      <trkpt lat="42.532347" lon="1.751717">
        <ele>2701.0</ele>
        <time>2020-02-23T13:02:06Z</time>
      </trkpt>
      <trkpt lat="42.532366" lon="1.751734">
        <ele>2700.5</ele>
        <time>2020-02-23T13:06:40Z</time>
      </trkpt>
      <trkpt lat="42.532406" lon="1.751706">
        <ele>2698.1</ele>
        <time>2020-02-23T13:07:34Z</time>
      </trkpt>
      <trkpt lat="42.532478" lon="1.751642">
        <ele>2694.6</ele>
        <time>2020-02-23T13:08:07Z</time>
      </trkpt>
      <trkpt lat="42.532552" lon="1.751560">
        <ele>2690.7</ele>
        <time>2020-02-23T13:08:28Z</time>
      </trkpt>
      <trkpt lat="42.532623" lon="1.751491">
        <ele>2687.2</ele>
        <time>2020-02-23T13:08:47Z</time>
      </trkpt>
      <trkpt lat="42.532705" lon="1.751428">
        <ele>2683.5</ele>
        <time>2020-02-23T13:08:59Z</time>
      </trkpt>
      <trkpt lat="42.532797" lon="1.751376">
        <ele>2681.0</ele>
        <time>2020-02-23T13:09:11Z</time>
      </trkpt>
      <trkpt lat="42.532901" lon="1.751347">
        <ele>2677.1</ele>
        <time>2020-02-23T13:09:22Z</time>
      </trkpt>
      <trkpt lat="42.532984" lon="1.751308">
        <ele>2674.5</ele>
        <time>2020-02-23T13:09:33Z</time>
      </trkpt>
      <trkpt lat="42.533079" lon="1.751312">
        <ele>2672.6</ele>
        <time>2020-02-23T13:09:43Z</time>
      </trkpt>
      <trkpt lat="42.533168" lon="1.751308">
        <ele>2671.1</ele>
        <time>2020-02-23T13:09:52Z</time>
      </trkpt>
      <trkpt lat="42.533266" lon="1.751312">
        <ele>2669.2</ele>
        <time>2020-02-23T13:10:02Z</time>
      </trkpt>
      <trkpt lat="42.533364" lon="1.751323">
        <ele>2667.5</ele>
        <time>2020-02-23T13:10:12Z</time>
      </trkpt>
      <trkpt lat="42.533464" lon="1.751321">
        <ele>2665.8</ele>
        <time>2020-02-23T13:10:23Z</time>
      </trkpt>
      <trkpt lat="42.533565" lon="1.751315">
        <ele>2665.0</ele>
        <time>2020-02-23T13:10:34Z</time>
      </trkpt>
      <trkpt lat="42.533660" lon="1.751301">
        <ele>2663.4</ele>
        <time>2020-02-23T13:10:45Z</time>
      </trkpt>
      <trkpt lat="42.533750" lon="1.751266">
        <ele>2662.6</ele>
        <time>2020-02-23T13:10:56Z</time>
      </trkpt>
      <trkpt lat="42.533833" lon="1.751207">
        <ele>2662.6</ele>
        <time>2020-02-23T13:11:08Z</time>
      </trkpt>
      <trkpt lat="42.533917" lon="1.751150">
        <ele>2662.6</ele>
        <time>2020-02-23T13:11:21Z</time>
      </trkpt>
      <trkpt lat="42.534007" lon="1.751173">
        <ele>2665.6</ele>
        <time>2020-02-23T13:13:44Z</time>
      </trkpt>
      <trkpt lat="42.534075" lon="1.751242">
        <ele>2661.8</ele>
        <time>2020-02-23T13:18:16Z</time>
      </trkpt>
      <trkpt lat="42.534171" lon="1.751222">
        <ele>2657.5</ele>
        <time>2020-02-23T13:18:27Z</time>
      </trkpt>
      <trkpt lat="42.534268" lon="1.751190">
        <ele>2652.8</ele>
        <time>2020-02-23T13:18:38Z</time>
      </trkpt>
      <trkpt lat="42.534358" lon="1.751157">
        <ele>2649.1</ele>
        <time>2020-02-23T13:18:57Z</time>
      </trkpt>
      <trkpt lat="42.534449" lon="1.751118">
        <ele>2645.2</ele>
        <time>2020-02-23T13:19:07Z</time>
      </trkpt>
      <trkpt lat="42.534535" lon="1.751069">
        <ele>2642.6</ele>
        <time>2020-02-23T13:19:15Z</time>
      </trkpt>
      <trkpt lat="42.534618" lon="1.751030">
        <ele>2639.7</ele>
        <time>2020-02-23T13:19:34Z</time>
      </trkpt>
      <trkpt lat="42.534696" lon="1.750966">
        <ele>2636.9</ele>
        <time>2020-02-23T13:19:43Z</time>
      </trkpt>
      <trkpt lat="42.534775" lon="1.750890">
        <ele>2633.1</ele>
        <time>2020-02-23T13:19:52Z</time>
      </trkpt>
      <trkpt lat="42.534832" lon="1.750796">
        <ele>2629.4</ele>
        <time>2020-02-23T13:20:01Z</time>
      </trkpt>
      <trkpt lat="42.534898" lon="1.750708">
        <ele>2625.3</ele>
        <time>2020-02-23T13:20:10Z</time>
      </trkpt>
      <trkpt lat="42.534976" lon="1.750645">
        <ele>2619.6</ele>
        <time>2020-02-23T13:20:22Z</time>
      </trkpt>
      <trkpt lat="42.535062" lon="1.750611">
        <ele>2616.3</ele>
        <time>2020-02-23T13:20:44Z</time>
      </trkpt>
      <trkpt lat="42.535144" lon="1.750579">
        <ele>2612.0</ele>
        <time>2020-02-23T13:20:55Z</time>
      </trkpt>
      <trkpt lat="42.535231" lon="1.750528">
        <ele>2607.9</ele>
        <time>2020-02-23T13:21:07Z</time>
      </trkpt>
      <trkpt lat="42.535315" lon="1.750464">
        <ele>2602.8</ele>
        <time>2020-02-23T13:21:18Z</time>
      </trkpt>
      <trkpt lat="42.535401" lon="1.750388">
        <ele>2600.1</ele>
        <time>2020-02-23T13:21:29Z</time>
      </trkpt>
      <trkpt lat="42.535476" lon="1.750307">
        <ele>2597.1</ele>
        <time>2020-02-23T13:21:39Z</time>
      </trkpt>
      <trkpt lat="42.535555" lon="1.750255">
        <ele>2593.7</ele>
        <time>2020-02-23T13:21:50Z</time>
      </trkpt>
      <trkpt lat="42.535625" lon="1.750185">
        <ele>2590.4</ele>
        <time>2020-02-23T13:22:00Z</time>
      </trkpt>
      <trkpt lat="42.535703" lon="1.750117">
        <ele>2587.6</ele>
        <time>2020-02-23T13:22:11Z</time>
      </trkpt>
      <trkpt lat="42.535781" lon="1.750060">
        <ele>2583.8</ele>
        <time>2020-02-23T13:22:21Z</time>
      </trkpt>
      <trkpt lat="42.535858" lon="1.749999">
        <ele>2580.8</ele>
        <time>2020-02-23T13:22:31Z</time>
      </trkpt>
      <trkpt lat="42.535936" lon="1.749928">
        <ele>2577.1</ele>
        <time>2020-02-23T13:22:42Z</time>
      </trkpt>
      <trkpt lat="42.536016" lon="1.749858">
        <ele>2573.4</ele>
        <time>2020-02-23T13:22:52Z</time>
      </trkpt>
      <trkpt lat="42.536096" lon="1.749800">
        <ele>2569.8</ele>
        <time>2020-02-23T13:23:01Z</time>
      </trkpt>
      <trkpt lat="42.536179" lon="1.749744">
        <ele>2566.7</ele>
        <time>2020-02-23T13:23:12Z</time>
      </trkpt>
      <trkpt lat="42.536267" lon="1.749719">
        <ele>2564.1</ele>
        <time>2020-02-23T13:23:22Z</time>
      </trkpt>
      <trkpt lat="42.536360" lon="1.749702">
        <ele>2561.3</ele>
        <time>2020-02-23T13:23:31Z</time>
      </trkpt>
      <trkpt lat="42.536451" lon="1.749677">
        <ele>2557.6</ele>
        <time>2020-02-23T13:23:40Z</time>
      </trkpt>
      <trkpt lat="42.536539" lon="1.749627">
        <ele>2553.2</ele>
        <time>2020-02-23T13:23:49Z</time>
      </trkpt>
      <trkpt lat="42.536630" lon="1.749584">
        <ele>2549.5</ele>
        <time>2020-02-23T13:23:58Z</time>
      </trkpt>
      <trkpt lat="42.536723" lon="1.749540">
        <ele>2546.3</ele>
        <time>2020-02-23T13:24:07Z</time>
      </trkpt>
      <trkpt lat="42.536825" lon="1.749523">
        <ele>2541.5</ele>
        <time>2020-02-23T13:24:16Z</time>
      </trkpt>
      <trkpt lat="42.536924" lon="1.749494">
        <ele>2538.7</ele>
        <time>2020-02-23T13:24:24Z</time>
      </trkpt>
      <trkpt lat="42.537013" lon="1.749443">
        <ele>2533.9</ele>
        <time>2020-02-23T13:24:32Z</time>
      </trkpt>
      <trkpt lat="42.537104" lon="1.749406">
        <ele>2531.1</ele>
        <time>2020-02-23T13:24:40Z</time>
      </trkpt>
      <trkpt lat="42.537190" lon="1.749351">
        <ele>2528.7</ele>
        <time>2020-02-23T13:24:49Z</time>
      </trkpt>
      <trkpt lat="42.537268" lon="1.749290">
        <ele>2527.1</ele>
        <time>2020-02-23T13:25:00Z</time>
      </trkpt>
      <trkpt lat="42.537346" lon="1.749239">
        <ele>2524.4</ele>
        <time>2020-02-23T13:25:13Z</time>
      </trkpt>
      <trkpt lat="42.537435" lon="1.749195">
        <ele>2521.5</ele>
        <time>2020-02-23T13:25:22Z</time>
      </trkpt>
      <trkpt lat="42.537514" lon="1.749141">
        <ele>2519.3</ele>
        <time>2020-02-23T13:25:30Z</time>
      </trkpt>
      <trkpt lat="42.537594" lon="1.749092">
        <ele>2516.4</ele>
        <time>2020-02-23T13:25:39Z</time>
      </trkpt>
      <trkpt lat="42.537679" lon="1.749101">
        <ele>2513.9</ele>
        <time>2020-02-23T13:25:55Z</time>
      </trkpt>
      <trkpt lat="42.537778" lon="1.749109">
        <ele>2510.4</ele>
        <time>2020-02-23T13:26:05Z</time>
      </trkpt>
      <trkpt lat="42.537870" lon="1.749121">
        <ele>2508.7</ele>
        <time>2020-02-23T13:26:14Z</time>
      </trkpt>
      <trkpt lat="42.537964" lon="1.749128">
        <ele>2507.1</ele>
        <time>2020-02-23T13:26:24Z</time>
      </trkpt>
      <trkpt lat="42.538053" lon="1.749151">
        <ele>2505.3</ele>
        <time>2020-02-23T13:26:33Z</time>
      </trkpt>
      <trkpt lat="42.538147" lon="1.749164">
        <ele>2501.7</ele>
        <time>2020-02-23T13:26:43Z</time>
      </trkpt>
      <trkpt lat="42.538242" lon="1.749187">
        <ele>2499.8</ele>
        <time>2020-02-23T13:26:52Z</time>
      </trkpt>
      <trkpt lat="42.538331" lon="1.749200">
        <ele>2497.8</ele>
        <time>2020-02-23T13:27:01Z</time>
      </trkpt>
      <trkpt lat="42.538416" lon="1.749168">
        <ele>2496.1</ele>
        <time>2020-02-23T13:27:12Z</time>
      </trkpt>
      <trkpt lat="42.538505" lon="1.749141">
        <ele>2493.3</ele>
        <time>2020-02-23T13:27:24Z</time>
      </trkpt>
      <trkpt lat="42.538592" lon="1.749175">
        <ele>2490.6</ele>
        <time>2020-02-23T13:27:36Z</time>
      </trkpt>
      <trkpt lat="42.538666" lon="1.749142">
        <ele>2486.6</ele>
        <time>2020-02-23T13:27:48Z</time>
      </trkpt>
      <trkpt lat="42.538761" lon="1.749147">
        <ele>2483.0</ele>
        <time>2020-02-23T13:28:00Z</time>
      </trkpt>
      <trkpt lat="42.538863" lon="1.749152">
        <ele>2480.3</ele>
        <time>2020-02-23T13:28:13Z</time>
      </trkpt>
      <trkpt lat="42.538949" lon="1.749175">
        <ele>2477.3</ele>
        <time>2020-02-23T13:28:23Z</time>
      </trkpt>
      <trkpt lat="42.539041" lon="1.749194">
        <ele>2473.6</ele>
        <time>2020-02-23T13:28:41Z</time>
      </trkpt>
      <trkpt lat="42.539136" lon="1.749213">
        <ele>2469.6</ele>
        <time>2020-02-23T13:28:52Z</time>
      </trkpt>
      <trkpt lat="42.539232" lon="1.749221">
        <ele>2466.8</ele>
        <time>2020-02-23T13:29:03Z</time>
      </trkpt>
      <trkpt lat="42.539325" lon="1.749223">
        <ele>2466.9</ele>
        <time>2020-02-23T13:29:13Z</time>
      </trkpt>
      <trkpt lat="42.539416" lon="1.749245">
        <ele>2463.5</ele>
        <time>2020-02-23T13:29:21Z</time>
      </trkpt>
      <trkpt lat="42.539500" lon="1.749267">
        <ele>2462.9</ele>
        <time>2020-02-23T13:29:36Z</time>
      </trkpt>
      <trkpt lat="42.539596" lon="1.749285">
        <ele>2462.0</ele>
        <time>2020-02-23T13:29:46Z</time>
      </trkpt>
      <trkpt lat="42.539685" lon="1.749305">
        <ele>2461.1</ele>
        <time>2020-02-23T13:29:56Z</time>
      </trkpt>
      <trkpt lat="42.539782" lon="1.749276">
        <ele>2461.2</ele>
        <time>2020-02-23T13:30:06Z</time>
      </trkpt>
      <trkpt lat="42.539869" lon="1.749260">
        <ele>2461.1</ele>
        <time>2020-02-23T13:30:16Z</time>
      </trkpt>
      <trkpt lat="42.539908" lon="1.749268">
        <ele>2458.9</ele>
        <time>2020-02-23T13:32:02Z</time>
      </trkpt>
      <trkpt lat="42.539997" lon="1.749340">
        <ele>2458.9</ele>
        <time>2020-02-23T13:32:12Z</time>
      </trkpt>
      <trkpt lat="42.540071" lon="1.749413">
        <ele>2458.1</ele>
        <time>2020-02-23T13:32:23Z</time>
      </trkpt>
      <trkpt lat="42.540150" lon="1.749475">
        <ele>2458.0</ele>
        <time>2020-02-23T13:32:32Z</time>
      </trkpt>
      <trkpt lat="42.540239" lon="1.749517">
        <ele>2456.1</ele>
        <time>2020-02-23T13:32:41Z</time>
      </trkpt>
      <trkpt lat="42.540324" lon="1.749577">
        <ele>2454.4</ele>
        <time>2020-02-23T13:32:51Z</time>
      </trkpt>
      <trkpt lat="42.540410" lon="1.749637">
        <ele>2453.3</ele>
        <time>2020-02-23T13:33:01Z</time>
      </trkpt>
      <trkpt lat="42.540492" lon="1.749685">
        <ele>2452.4</ele>
        <time>2020-02-23T13:33:10Z</time>
      </trkpt>
      <trkpt lat="42.540562" lon="1.749753">
        <ele>2451.5</ele>
        <time>2020-02-23T13:33:20Z</time>
      </trkpt>
      <trkpt lat="42.540640" lon="1.749827">
        <ele>2450.8</ele>
        <time>2020-02-23T13:33:31Z</time>
      </trkpt>
      <trkpt lat="42.540727" lon="1.749890">
        <ele>2450.8</ele>
        <time>2020-02-23T13:33:43Z</time>
      </trkpt>
      <trkpt lat="42.540811" lon="1.749935">
        <ele>2449.9</ele>
        <time>2020-02-23T13:34:08Z</time>
      </trkpt>
      <trkpt lat="42.540905" lon="1.749974">
        <ele>2449.9</ele>
        <time>2020-02-23T13:34:18Z</time>
      </trkpt>
      <trkpt lat="42.541000" lon="1.750011">
        <ele>2449.0</ele>
        <time>2020-02-23T13:34:27Z</time>
      </trkpt>
      <trkpt lat="42.541096" lon="1.750035">
        <ele>2448.9</ele>
        <time>2020-02-23T13:34:36Z</time>
      </trkpt>
      <trkpt lat="42.541194" lon="1.750019">
        <ele>2448.9</ele>
        <time>2020-02-23T13:34:45Z</time>
      </trkpt>
      <trkpt lat="42.541285" lon="1.749988">
        <ele>2447.1</ele>
        <time>2020-02-23T13:34:53Z</time>
      </trkpt>
      <trkpt lat="42.541380" lon="1.749973">
        <ele>2445.3</ele>
        <time>2020-02-23T13:35:02Z</time>
      </trkpt>
      <trkpt lat="42.541474" lon="1.749966">
        <ele>2443.0</ele>
        <time>2020-02-23T13:35:10Z</time>
      </trkpt>
      <trkpt lat="42.541568" lon="1.749970">
        <ele>2440.2</ele>
        <time>2020-02-23T13:35:18Z</time>
      </trkpt>
      <trkpt lat="42.541667" lon="1.749955">
        <ele>2437.4</ele>
        <time>2020-02-23T13:35:27Z</time>
      </trkpt>
      <trkpt lat="42.541760" lon="1.749976">
        <ele>2434.7</ele>
        <time>2020-02-23T13:35:36Z</time>
      </trkpt>
      <trkpt lat="42.541854" lon="1.750002">
        <ele>2431.0</ele>
        <time>2020-02-23T13:35:45Z</time>
      </trkpt>
      <trkpt lat="42.541947" lon="1.750000">
        <ele>2427.2</ele>
        <time>2020-02-23T13:35:54Z</time>
      </trkpt>
      <trkpt lat="42.542041" lon="1.750019">
        <ele>2423.2</ele>
        <time>2020-02-23T13:36:04Z</time>
      </trkpt>
      <trkpt lat="42.542126" lon="1.750057">
        <ele>2419.3</ele>
        <time>2020-02-23T13:36:13Z</time>
      </trkpt>
      <trkpt lat="42.542222" lon="1.750070">
        <ele>2415.3</ele>
        <time>2020-02-23T13:36:22Z</time>
      </trkpt>
      <trkpt lat="42.542316" lon="1.750067">
        <ele>2412.4</ele>
        <time>2020-02-23T13:36:31Z</time>
      </trkpt>
      <trkpt lat="42.542404" lon="1.750040">
        <ele>2409.3</ele>
        <time>2020-02-23T13:36:45Z</time>
      </trkpt>
      <trkpt lat="42.542498" lon="1.750016">
        <ele>2406.5</ele>
        <time>2020-02-23T13:36:57Z</time>
      </trkpt>
      <trkpt lat="42.542589" lon="1.750008">
        <ele>2403.7</ele>
        <time>2020-02-23T13:37:07Z</time>
      </trkpt>
      <trkpt lat="42.542687" lon="1.750007">
        <ele>2400.2</ele>
        <time>2020-02-23T13:37:18Z</time>
      </trkpt>
      <trkpt lat="42.542773" lon="1.749994">
        <ele>2397.3</ele>
        <time>2020-02-23T13:37:29Z</time>
      </trkpt>
      <trkpt lat="42.542864" lon="1.749964">
        <ele>2394.0</ele>
        <time>2020-02-23T13:37:40Z</time>
      </trkpt>
      <trkpt lat="42.542952" lon="1.749938">
        <ele>2390.4</ele>
        <time>2020-02-23T13:37:50Z</time>
      </trkpt>
      <trkpt lat="42.543041" lon="1.749918">
        <ele>2387.7</ele>
        <time>2020-02-23T13:38:01Z</time>
      </trkpt>
      <trkpt lat="42.543136" lon="1.749928">
        <ele>2384.1</ele>
        <time>2020-02-23T13:38:12Z</time>
      </trkpt>
      <trkpt lat="42.543223" lon="1.749968">
        <ele>2380.4</ele>
        <time>2020-02-23T13:38:23Z</time>
      </trkpt>
      <trkpt lat="42.543310" lon="1.750011">
        <ele>2377.4</ele>
        <time>2020-02-23T13:38:33Z</time>
      </trkpt>
      <trkpt lat="42.543397" lon="1.750050">
        <ele>2374.9</ele>
        <time>2020-02-23T13:38:44Z</time>
      </trkpt>
      <trkpt lat="42.543480" lon="1.750116">
        <ele>2372.1</ele>
        <time>2020-02-23T13:38:55Z</time>
      </trkpt>
      <trkpt lat="42.543556" lon="1.750191">
        <ele>2370.2</ele>
        <time>2020-02-23T13:39:05Z</time>
      </trkpt>
      <trkpt lat="42.543642" lon="1.750235">
        <ele>2367.5</ele>
        <time>2020-02-23T13:39:16Z</time>
      </trkpt>
      <trkpt lat="42.543715" lon="1.750310">
        <ele>2363.1</ele>
        <time>2020-02-23T13:39:32Z</time>
      </trkpt>
      <trkpt lat="42.543809" lon="1.750371">
        <ele>2359.0</ele>
        <time>2020-02-23T13:39:45Z</time>
      </trkpt>
      <trkpt lat="42.543892" lon="1.750429">
        <ele>2355.6</ele>
        <time>2020-02-23T13:39:56Z</time>
      </trkpt>
      <trkpt lat="42.543978" lon="1.750490">
        <ele>2351.9</ele>
        <time>2020-02-23T13:40:07Z</time>
      </trkpt>
      <trkpt lat="42.544065" lon="1.750557">
        <ele>2349.0</ele>
        <time>2020-02-23T13:40:18Z</time>
      </trkpt>
      <trkpt lat="42.544145" lon="1.750617">
        <ele>2344.4</ele>
        <time>2020-02-23T13:40:31Z</time>
      </trkpt>
      <trkpt lat="42.544226" lon="1.750674">
        <ele>2340.6</ele>
        <time>2020-02-23T13:40:44Z</time>
      </trkpt>
      <trkpt lat="42.544304" lon="1.750735">
        <ele>2337.0</ele>
        <time>2020-02-23T13:41:11Z</time>
      </trkpt>
      <trkpt lat="42.544382" lon="1.750799">
        <ele>2333.4</ele>
        <time>2020-02-23T13:41:26Z</time>
      </trkpt>
      <trkpt lat="42.544455" lon="1.750859">
        <ele>2329.4</ele>
        <time>2020-02-23T13:41:37Z</time>
      </trkpt>
      <trkpt lat="42.544538" lon="1.750910">
        <ele>2324.9</ele>
        <time>2020-02-23T13:41:48Z</time>
      </trkpt>
      <trkpt lat="42.544620" lon="1.750966">
        <ele>2320.4</ele>
        <time>2020-02-23T13:41:59Z</time>
      </trkpt>
      <trkpt lat="42.544702" lon="1.751021">
        <ele>2317.4</ele>
        <time>2020-02-23T13:42:09Z</time>
      </trkpt>
      <trkpt lat="42.544781" lon="1.751089">
        <ele>2313.6</ele>
        <time>2020-02-23T13:42:19Z</time>
      </trkpt>
      <trkpt lat="42.544864" lon="1.751160">
        <ele>2310.8</ele>
        <time>2020-02-23T13:42:29Z</time>
      </trkpt>
      <trkpt lat="42.544936" lon="1.751258">
        <ele>2308.0</ele>
        <time>2020-02-23T13:42:39Z</time>
      </trkpt>
      <trkpt lat="42.544999" lon="1.751351">
        <ele>2306.3</ele>
        <time>2020-02-23T13:42:48Z</time>
      </trkpt>
      <trkpt lat="42.545068" lon="1.751445">
        <ele>2303.5</ele>
        <time>2020-02-23T13:43:03Z</time>
      </trkpt>
      <trkpt lat="42.545147" lon="1.751525">
        <ele>2300.9</ele>
        <time>2020-02-23T13:43:12Z</time>
      </trkpt>
      <trkpt lat="42.545224" lon="1.751602">
        <ele>2298.9</ele>
        <time>2020-02-23T13:43:21Z</time>
      </trkpt>
      <trkpt lat="42.545312" lon="1.751666">
        <ele>2296.1</ele>
        <time>2020-02-23T13:43:31Z</time>
      </trkpt>
      <trkpt lat="42.545402" lon="1.751710">
        <ele>2293.2</ele>
        <time>2020-02-23T13:43:41Z</time>
      </trkpt>
      <trkpt lat="42.545495" lon="1.751744">
        <ele>2291.3</ele>
        <time>2020-02-23T13:43:51Z</time>
      </trkpt>
      <trkpt lat="42.545598" lon="1.751764">
        <ele>2289.1</ele>
        <time>2020-02-23T13:44:01Z</time>
      </trkpt>
      <trkpt lat="42.545691" lon="1.751798">
        <ele>2286.4</ele>
        <time>2020-02-23T13:44:11Z</time>
      </trkpt>
      <trkpt lat="42.545787" lon="1.751815">
        <ele>2282.7</ele>
        <time>2020-02-23T13:44:21Z</time>
      </trkpt>
      <trkpt lat="42.545877" lon="1.751803">
        <ele>2280.8</ele>
        <time>2020-02-23T13:44:30Z</time>
      </trkpt>
      <trkpt lat="42.545970" lon="1.751774">
        <ele>2280.0</ele>
        <time>2020-02-23T13:44:39Z</time>
      </trkpt>
      <trkpt lat="42.546060" lon="1.751790">
        <ele>2276.6</ele>
        <time>2020-02-23T13:44:49Z</time>
      </trkpt>
      <trkpt lat="42.546154" lon="1.751817">
        <ele>2273.8</ele>
        <time>2020-02-23T13:45:00Z</time>
      </trkpt>
      <trkpt lat="42.546248" lon="1.751822">
        <ele>2269.9</ele>
        <time>2020-02-23T13:45:10Z</time>
      </trkpt>
      <trkpt lat="42.546334" lon="1.751833">
        <ele>2267.4</ele>
        <time>2020-02-23T13:45:21Z</time>
      </trkpt>
      <trkpt lat="42.546429" lon="1.751845">
        <ele>2265.2</ele>
        <time>2020-02-23T13:45:31Z</time>
      </trkpt>
      <trkpt lat="42.546523" lon="1.751865">
        <ele>2263.4</ele>
        <time>2020-02-23T13:45:40Z</time>
      </trkpt>
      <trkpt lat="42.546613" lon="1.751892">
        <ele>2261.6</ele>
        <time>2020-02-23T13:45:50Z</time>
      </trkpt>
      <trkpt lat="42.546697" lon="1.751946">
        <ele>2259.9</ele>
        <time>2020-02-23T13:46:01Z</time>
      </trkpt>
      <trkpt lat="42.546780" lon="1.752017">
        <ele>2258.2</ele>
        <time>2020-02-23T13:46:11Z</time>
      </trkpt>
      <trkpt lat="42.546860" lon="1.752067">
        <ele>2256.4</ele>
        <time>2020-02-23T13:46:21Z</time>
      </trkpt>
      <trkpt lat="42.546950" lon="1.752109">
        <ele>2254.7</ele>
        <time>2020-02-23T13:46:32Z</time>
      </trkpt>
      <trkpt lat="42.547028" lon="1.752128">
        <ele>2251.8</ele>
        <time>2020-02-23T13:46:42Z</time>
      </trkpt>
      <trkpt lat="42.547120" lon="1.752153">
        <ele>2250.0</ele>
        <time>2020-02-23T13:46:53Z</time>
      </trkpt>
      <trkpt lat="42.547196" lon="1.752227">
        <ele>2247.2</ele>
        <time>2020-02-23T13:47:02Z</time>
      </trkpt>
      <trkpt lat="42.547260" lon="1.752324">
        <ele>2244.7</ele>
        <time>2020-02-23T13:47:11Z</time>
      </trkpt>
      <trkpt lat="42.547331" lon="1.752413">
        <ele>2242.1</ele>
        <time>2020-02-23T13:47:21Z</time>
      </trkpt>
      <trkpt lat="42.547401" lon="1.752500">
        <ele>2239.3</ele>
        <time>2020-02-23T13:47:31Z</time>
      </trkpt>
      <trkpt lat="42.547476" lon="1.752589">
        <ele>2237.4</ele>
        <time>2020-02-23T13:47:41Z</time>
      </trkpt>
      <trkpt lat="42.547546" lon="1.752666">
        <ele>2234.4</ele>
        <time>2020-02-23T13:47:51Z</time>
      </trkpt>
      <trkpt lat="42.547617" lon="1.752742">
        <ele>2232.0</ele>
        <time>2020-02-23T13:48:02Z</time>
      </trkpt>
      <trkpt lat="42.547681" lon="1.752826">
        <ele>2228.3</ele>
        <time>2020-02-23T13:48:13Z</time>
      </trkpt>
      <trkpt lat="42.547744" lon="1.752930">
        <ele>2225.9</ele>
        <time>2020-02-23T13:48:24Z</time>
      </trkpt>
      <trkpt lat="42.547816" lon="1.753014">
        <ele>2223.2</ele>
        <time>2020-02-23T13:48:34Z</time>
      </trkpt>
      <trkpt lat="42.547882" lon="1.753097">
        <ele>2220.5</ele>
        <time>2020-02-23T13:48:45Z</time>
      </trkpt>
      <trkpt lat="42.547947" lon="1.753184">
        <ele>2218.1</ele>
        <time>2020-02-23T13:48:56Z</time>
      </trkpt>
      <trkpt lat="42.548023" lon="1.753272">
        <ele>2216.3</ele>
        <time>2020-02-23T13:49:07Z</time>
      </trkpt>
      <trkpt lat="42.548097" lon="1.753359">
        <ele>2214.5</ele>
        <time>2020-02-23T13:49:17Z</time>
      </trkpt>
      <trkpt lat="42.548142" lon="1.753454">
        <ele>2212.2</ele>
        <time>2020-02-23T13:52:04Z</time>
      </trkpt>
      <trkpt lat="42.548182" lon="1.753573">
        <ele>2211.1</ele>
        <time>2020-02-23T13:52:13Z</time>
      </trkpt>
      <trkpt lat="42.548236" lon="1.753690">
        <ele>2209.5</ele>
        <time>2020-02-23T13:52:22Z</time>
      </trkpt>
      <trkpt lat="42.548296" lon="1.753780">
        <ele>2206.9</ele>
        <time>2020-02-23T13:52:30Z</time>
      </trkpt>
      <trkpt lat="42.548358" lon="1.753865">
        <ele>2206.0</ele>
        <time>2020-02-23T13:52:38Z</time>
      </trkpt>
      <trkpt lat="42.548429" lon="1.753958">
        <ele>2204.3</ele>
        <time>2020-02-23T13:52:47Z</time>
      </trkpt>
      <trkpt lat="42.548495" lon="1.754047">
        <ele>2202.6</ele>
        <time>2020-02-23T13:52:56Z</time>
      </trkpt>
      <trkpt lat="42.548558" lon="1.754139">
        <ele>2201.0</ele>
        <time>2020-02-23T13:53:05Z</time>
      </trkpt>
      <trkpt lat="42.548623" lon="1.754237">
        <ele>2200.1</ele>
        <time>2020-02-23T13:53:15Z</time>
      </trkpt>
      <trkpt lat="42.548676" lon="1.754335">
        <ele>2199.1</ele>
        <time>2020-02-23T13:53:24Z</time>
      </trkpt>
      <trkpt lat="42.548743" lon="1.754427">
        <ele>2198.3</ele>
        <time>2020-02-23T13:53:34Z</time>
      </trkpt>
      <trkpt lat="42.548814" lon="1.754523">
        <ele>2197.3</ele>
        <time>2020-02-23T13:53:44Z</time>
      </trkpt>
      <trkpt lat="42.548880" lon="1.754620">
        <ele>2196.5</ele>
        <time>2020-02-23T13:53:54Z</time>
      </trkpt>
      <trkpt lat="42.548950" lon="1.754697">
        <ele>2195.6</ele>
        <time>2020-02-23T13:54:03Z</time>
      </trkpt>
      <trkpt lat="42.549021" lon="1.754780">
        <ele>2195.6</ele>
        <time>2020-02-23T13:54:13Z</time>
      </trkpt>
      <trkpt lat="42.549095" lon="1.754855">
        <ele>2194.7</ele>
        <time>2020-02-23T13:54:23Z</time>
      </trkpt>
      <trkpt lat="42.549171" lon="1.754929">
        <ele>2193.7</ele>
        <time>2020-02-23T13:54:32Z</time>
      </trkpt>
      <trkpt lat="42.549247" lon="1.755004">
        <ele>2193.7</ele>
        <time>2020-02-23T13:54:42Z</time>
      </trkpt>
      <trkpt lat="42.549328" lon="1.755076">
        <ele>2193.6</ele>
        <time>2020-02-23T13:54:52Z</time>
      </trkpt>
      <trkpt lat="42.549407" lon="1.755141">
        <ele>2192.6</ele>
        <time>2020-02-23T13:55:01Z</time>
      </trkpt>
      <trkpt lat="42.549492" lon="1.755211">
        <ele>2191.8</ele>
        <time>2020-02-23T13:55:11Z</time>
      </trkpt>
      <trkpt lat="42.549571" lon="1.755285">
        <ele>2190.9</ele>
        <time>2020-02-23T13:55:21Z</time>
      </trkpt>
      <trkpt lat="42.549648" lon="1.755349">
        <ele>2190.1</ele>
        <time>2020-02-23T13:55:31Z</time>
      </trkpt>
      <trkpt lat="42.549722" lon="1.755430">
        <ele>2190.0</ele>
        <time>2020-02-23T13:55:41Z</time>
      </trkpt>
      <trkpt lat="42.549804" lon="1.755506">
        <ele>2189.2</ele>
        <time>2020-02-23T13:55:51Z</time>
      </trkpt>
      <trkpt lat="42.549884" lon="1.755572">
        <ele>2187.5</ele>
        <time>2020-02-23T13:56:00Z</time>
      </trkpt>
      <trkpt lat="42.549965" lon="1.755631">
        <ele>2187.5</ele>
        <time>2020-02-23T13:56:10Z</time>
      </trkpt>
      <trkpt lat="42.550054" lon="1.755691">
        <ele>2186.6</ele>
        <time>2020-02-23T13:56:20Z</time>
      </trkpt>
      <trkpt lat="42.550134" lon="1.755743">
        <ele>2184.9</ele>
        <time>2020-02-23T13:56:29Z</time>
      </trkpt>
      <trkpt lat="42.550221" lon="1.755816">
        <ele>2184.1</ele>
        <time>2020-02-23T13:56:39Z</time>
      </trkpt>
      <trkpt lat="42.550299" lon="1.755891">
        <ele>2184.1</ele>
        <time>2020-02-23T13:56:49Z</time>
      </trkpt>
      <trkpt lat="42.550376" lon="1.755963">
        <ele>2182.5</ele>
        <time>2020-02-23T13:56:59Z</time>
      </trkpt>
      <trkpt lat="42.550450" lon="1.756031">
        <ele>2182.5</ele>
        <time>2020-02-23T13:57:09Z</time>
      </trkpt>
      <trkpt lat="42.550532" lon="1.756105">
        <ele>2181.6</ele>
        <time>2020-02-23T13:57:19Z</time>
      </trkpt>
      <trkpt lat="42.550612" lon="1.756177">
        <ele>2181.4</ele>
        <time>2020-02-23T13:57:29Z</time>
      </trkpt>
      <trkpt lat="42.550691" lon="1.756247">
        <ele>2180.6</ele>
        <time>2020-02-23T13:57:39Z</time>
      </trkpt>
      <trkpt lat="42.550767" lon="1.756323">
        <ele>2179.6</ele>
        <time>2020-02-23T13:57:49Z</time>
      </trkpt>
      <trkpt lat="42.550841" lon="1.756395">
        <ele>2178.8</ele>
        <time>2020-02-23T13:57:59Z</time>
      </trkpt>
      <trkpt lat="42.550910" lon="1.756477">
        <ele>2178.7</ele>
        <time>2020-02-23T13:58:25Z</time>
      </trkpt>
      <trkpt lat="42.550981" lon="1.756540">
        <ele>2177.7</ele>
        <time>2020-02-23T13:58:39Z</time>
      </trkpt>
      <trkpt lat="42.551060" lon="1.756627">
        <ele>2177.6</ele>
        <time>2020-02-23T13:58:49Z</time>
      </trkpt>
      <trkpt lat="42.551138" lon="1.756715">
        <ele>2176.8</ele>
        <time>2020-02-23T13:58:58Z</time>
      </trkpt>
      <trkpt lat="42.551211" lon="1.756801">
        <ele>2176.0</ele>
        <time>2020-02-23T13:59:06Z</time>
      </trkpt>
      <trkpt lat="42.551287" lon="1.756871">
        <ele>2175.9</ele>
        <time>2020-02-23T13:59:13Z</time>
      </trkpt>
      <trkpt lat="42.551365" lon="1.756956">
        <ele>2175.1</ele>
        <time>2020-02-23T13:59:22Z</time>
      </trkpt>
      <trkpt lat="42.551441" lon="1.757037">
        <ele>2174.2</ele>
        <time>2020-02-23T13:59:32Z</time>
      </trkpt>
      <trkpt lat="42.551520" lon="1.757112">
        <ele>2173.3</ele>
        <time>2020-02-23T13:59:41Z</time>
      </trkpt>
      <trkpt lat="42.551596" lon="1.757184">
        <ele>2172.4</ele>
        <time>2020-02-23T13:59:50Z</time>
      </trkpt>
      <trkpt lat="42.551673" lon="1.757251">
        <ele>2171.6</ele>
        <time>2020-02-23T13:59:58Z</time>
      </trkpt>
      <trkpt lat="42.551745" lon="1.757325">
        <ele>2171.6</ele>
        <time>2020-02-23T14:00:06Z</time>
      </trkpt>
      <trkpt lat="42.551807" lon="1.757419">
        <ele>2170.8</ele>
        <time>2020-02-23T14:00:14Z</time>
      </trkpt>
      <trkpt lat="42.551879" lon="1.757513">
        <ele>2169.7</ele>
        <time>2020-02-23T14:00:22Z</time>
      </trkpt>
      <trkpt lat="42.551936" lon="1.757609">
        <ele>2169.7</ele>
        <time>2020-02-23T14:00:30Z</time>
      </trkpt>
      <trkpt lat="42.551993" lon="1.757714">
        <ele>2167.8</ele>
        <time>2020-02-23T14:00:39Z</time>
      </trkpt>
      <trkpt lat="42.552058" lon="1.757799">
        <ele>2167.0</ele>
        <time>2020-02-23T14:00:47Z</time>
      </trkpt>
      <trkpt lat="42.552136" lon="1.757868">
        <ele>2167.0</ele>
        <time>2020-02-23T14:00:55Z</time>
      </trkpt>
      <trkpt lat="42.552212" lon="1.757939">
        <ele>2165.2</ele>
        <time>2020-02-23T14:01:03Z</time>
      </trkpt>
      <trkpt lat="42.552289" lon="1.758021">
        <ele>2164.2</ele>
        <time>2020-02-23T14:01:12Z</time>
      </trkpt>
      <trkpt lat="42.552352" lon="1.758112">
        <ele>2162.1</ele>
        <time>2020-02-23T14:01:22Z</time>
      </trkpt>
      <trkpt lat="42.552418" lon="1.758202">
        <ele>2159.9</ele>
        <time>2020-02-23T14:01:30Z</time>
      </trkpt>
      <trkpt lat="42.552480" lon="1.758295">
        <ele>2158.1</ele>
        <time>2020-02-23T14:01:38Z</time>
      </trkpt>
      <trkpt lat="42.552550" lon="1.758374">
        <ele>2156.4</ele>
        <time>2020-02-23T14:01:46Z</time>
      </trkpt>
      <trkpt lat="42.552622" lon="1.758447">
        <ele>2154.6</ele>
        <time>2020-02-23T14:01:55Z</time>
      </trkpt>
      <trkpt lat="42.552694" lon="1.758526">
        <ele>2152.6</ele>
        <time>2020-02-23T14:02:04Z</time>
      </trkpt>
      <trkpt lat="42.552780" lon="1.758583">
        <ele>2149.8</ele>
        <time>2020-02-23T14:02:12Z</time>
      </trkpt>
      <trkpt lat="42.552865" lon="1.758658">
        <ele>2147.9</ele>
        <time>2020-02-23T14:02:21Z</time>
      </trkpt>
      <trkpt lat="42.552952" lon="1.758722">
        <ele>2145.3</ele>
        <time>2020-02-23T14:02:29Z</time>
      </trkpt>
      <trkpt lat="42.553027" lon="1.758799">
        <ele>2143.6</ele>
        <time>2020-02-23T14:02:37Z</time>
      </trkpt>
      <trkpt lat="42.553107" lon="1.758859">
        <ele>2141.9</ele>
        <time>2020-02-23T14:02:45Z</time>
      </trkpt>
      <trkpt lat="42.553187" lon="1.758921">
        <ele>2139.8</ele>
        <time>2020-02-23T14:02:53Z</time>
      </trkpt>
      <trkpt lat="42.553259" lon="1.758993">
        <ele>2137.3</ele>
        <time>2020-02-23T14:03:01Z</time>
      </trkpt>
      <trkpt lat="42.553342" lon="1.759066">
        <ele>2135.5</ele>
        <time>2020-02-23T14:03:10Z</time>
      </trkpt>
      <trkpt lat="42.553424" lon="1.759139">
        <ele>2133.1</ele>
        <time>2020-02-23T14:03:18Z</time>
      </trkpt>
      <trkpt lat="42.553495" lon="1.759219">
        <ele>2130.4</ele>
        <time>2020-02-23T14:03:26Z</time>
      </trkpt>
      <trkpt lat="42.553574" lon="1.759269">
        <ele>2128.6</ele>
        <time>2020-02-23T14:03:35Z</time>
      </trkpt>
      <trkpt lat="42.553645" lon="1.759330">
        <ele>2126.6</ele>
        <time>2020-02-23T14:03:45Z</time>
      </trkpt>
      <trkpt lat="42.553731" lon="1.759389">
        <ele>2125.5</ele>
        <time>2020-02-23T14:03:55Z</time>
      </trkpt>
      <trkpt lat="42.553819" lon="1.759471">
        <ele>2122.6</ele>
        <time>2020-02-23T14:04:04Z</time>
      </trkpt>
      <trkpt lat="42.553903" lon="1.759544">
        <ele>2120.6</ele>
        <time>2020-02-23T14:04:13Z</time>
      </trkpt>
      <trkpt lat="42.553978" lon="1.759635">
        <ele>2117.9</ele>
        <time>2020-02-23T14:04:23Z</time>
      </trkpt>
      <trkpt lat="42.554052" lon="1.759719">
        <ele>2116.0</ele>
        <time>2020-02-23T14:04:31Z</time>
      </trkpt>
      <trkpt lat="42.554121" lon="1.759798">
        <ele>2114.3</ele>
        <time>2020-02-23T14:04:40Z</time>
      </trkpt>
      <trkpt lat="42.554189" lon="1.759890">
        <ele>2112.5</ele>
        <time>2020-02-23T14:04:49Z</time>
      </trkpt>
      <trkpt lat="42.554254" lon="1.759981">
        <ele>2110.5</ele>
        <time>2020-02-23T14:04:58Z</time>
      </trkpt>
      <trkpt lat="42.554327" lon="1.760093">
        <ele>2108.9</ele>
        <time>2020-02-23T14:05:07Z</time>
      </trkpt>
      <trkpt lat="42.554397" lon="1.760212">
        <ele>2107.1</ele>
        <time>2020-02-23T14:05:15Z</time>
      </trkpt>
      <trkpt lat="42.554459" lon="1.760274">
        <ele>2105.3</ele>
        <time>2020-02-23T14:05:24Z</time>
      </trkpt>
      <trkpt lat="42.554522" lon="1.760347">
        <ele>2104.4</ele>
        <time>2020-02-23T14:05:32Z</time>
      </trkpt>
      <trkpt lat="42.554580" lon="1.760432">
        <ele>2102.6</ele>
        <time>2020-02-23T14:06:04Z</time>
      </trkpt>
      <trkpt lat="42.554633" lon="1.760507">
        <ele>2101.6</ele>
        <time>2020-02-23T14:06:14Z</time>
      </trkpt>
      <trkpt lat="42.554696" lon="1.760588">
        <ele>2099.8</ele>
        <time>2020-02-23T14:06:23Z</time>
      </trkpt>
      <trkpt lat="42.554769" lon="1.760656">
        <ele>2098.1</ele>
        <time>2020-02-23T14:06:32Z</time>
      </trkpt>
      <trkpt lat="42.554855" lon="1.760736">
        <ele>2096.4</ele>
        <time>2020-02-23T14:06:41Z</time>
      </trkpt>
      <trkpt lat="42.554934" lon="1.760817">
        <ele>2094.6</ele>
        <time>2020-02-23T14:06:50Z</time>
      </trkpt>
      <trkpt lat="42.554993" lon="1.760903">
        <ele>2093.7</ele>
        <time>2020-02-23T14:06:58Z</time>
      </trkpt>
      <trkpt lat="42.555051" lon="1.761012">
        <ele>2091.8</ele>
        <time>2020-02-23T14:07:07Z</time>
      </trkpt>
      <trkpt lat="42.555110" lon="1.761089">
        <ele>2091.0</ele>
        <time>2020-02-23T14:07:15Z</time>
      </trkpt>
      <trkpt lat="42.555175" lon="1.761159">
        <ele>2089.2</ele>
        <time>2020-02-23T14:07:23Z</time>
      </trkpt>
      <trkpt lat="42.555239" lon="1.761233">
        <ele>2087.1</ele>
        <time>2020-02-23T14:07:31Z</time>
      </trkpt>
      <trkpt lat="42.555253" lon="1.761315">
        <ele>2084.1</ele>
        <time>2020-02-23T14:08:47Z</time>
      </trkpt>
      <trkpt lat="42.555323" lon="1.761403">
        <ele>2083.1</ele>
        <time>2020-02-23T14:09:04Z</time>
      </trkpt>
      <trkpt lat="42.555389" lon="1.761501">
        <ele>2079.3</ele>
        <time>2020-02-23T14:09:14Z</time>
      </trkpt>
      <trkpt lat="42.555455" lon="1.761588">
        <ele>2076.5</ele>
        <time>2020-02-23T14:09:25Z</time>
      </trkpt>
      <trkpt lat="42.555521" lon="1.761698">
        <ele>2074.8</ele>
        <time>2020-02-23T14:09:36Z</time>
      </trkpt>
      <trkpt lat="42.555598" lon="1.761774">
        <ele>2073.0</ele>
        <time>2020-02-23T14:09:45Z</time>
      </trkpt>
      <trkpt lat="42.555680" lon="1.761851">
        <ele>2071.2</ele>
        <time>2020-02-23T14:09:54Z</time>
      </trkpt>
      <trkpt lat="42.555751" lon="1.761952">
        <ele>2069.5</ele>
        <time>2020-02-23T14:10:05Z</time>
      </trkpt>
      <trkpt lat="42.555790" lon="1.762045">
        <ele>2066.9</ele>
        <time>2020-02-23T14:10:21Z</time>
      </trkpt>
      <trkpt lat="42.555832" lon="1.762155">
        <ele>2065.2</ele>
        <time>2020-02-23T14:10:31Z</time>
      </trkpt>
      <trkpt lat="42.555880" lon="1.762268">
        <ele>2063.3</ele>
        <time>2020-02-23T14:10:41Z</time>
      </trkpt>
      <trkpt lat="42.555926" lon="1.762367">
        <ele>2060.5</ele>
        <time>2020-02-23T14:10:50Z</time>
      </trkpt>
      <trkpt lat="42.555980" lon="1.762466">
        <ele>2058.5</ele>
        <time>2020-02-23T14:10:59Z</time>
      </trkpt>
      <trkpt lat="42.556020" lon="1.762581">
        <ele>2055.7</ele>
        <time>2020-02-23T14:11:08Z</time>
      </trkpt>
      <trkpt lat="42.556069" lon="1.762689">
        <ele>2053.9</ele>
        <time>2020-02-23T14:11:17Z</time>
      </trkpt>
      <trkpt lat="42.556114" lon="1.762793">
        <ele>2052.0</ele>
        <time>2020-02-23T14:11:26Z</time>
      </trkpt>
      <trkpt lat="42.556166" lon="1.762887">
        <ele>2050.1</ele>
        <time>2020-02-23T14:11:35Z</time>
      </trkpt>
      <trkpt lat="42.556198" lon="1.762979">
        <ele>2045.7</ele>
        <time>2020-02-23T14:11:45Z</time>
      </trkpt>
      <trkpt lat="42.556269" lon="1.763070">
        <ele>2044.2</ele>
        <time>2020-02-23T14:11:56Z</time>
      </trkpt>
      <trkpt lat="42.556322" lon="1.763162">
        <ele>2042.4</ele>
        <time>2020-02-23T14:12:05Z</time>
      </trkpt>
      <trkpt lat="42.556368" lon="1.763246">
        <ele>2040.3</ele>
        <time>2020-02-23T14:12:15Z</time>
      </trkpt>
      <trkpt lat="42.556453" lon="1.763307">
        <ele>2037.6</ele>
        <time>2020-02-23T14:12:26Z</time>
      </trkpt>
      <trkpt lat="42.556553" lon="1.763377">
        <ele>2034.8</ele>
        <time>2020-02-23T14:12:36Z</time>
      </trkpt>
      <trkpt lat="42.556644" lon="1.763419">
        <ele>2031.6</ele>
        <time>2020-02-23T14:12:43Z</time>
      </trkpt>
      <trkpt lat="42.556729" lon="1.763479">
        <ele>2029.0</ele>
        <time>2020-02-23T14:12:51Z</time>
      </trkpt>
      <trkpt lat="42.556811" lon="1.763547">
        <ele>2026.1</ele>
        <time>2020-02-23T14:12:59Z</time>
      </trkpt>
      <trkpt lat="42.556884" lon="1.763616">
        <ele>2024.4</ele>
        <time>2020-02-23T14:13:07Z</time>
      </trkpt>
      <trkpt lat="42.556970" lon="1.763678">
        <ele>2022.5</ele>
        <time>2020-02-23T14:13:16Z</time>
      </trkpt>
      <trkpt lat="42.557052" lon="1.763731">
        <ele>2019.2</ele>
        <time>2020-02-23T14:13:26Z</time>
      </trkpt>
      <trkpt lat="42.557130" lon="1.763773">
        <ele>2016.7</ele>
        <time>2020-02-23T14:13:35Z</time>
      </trkpt>
      <trkpt lat="42.557207" lon="1.763844">
        <ele>2013.8</ele>
        <time>2020-02-23T14:13:44Z</time>
      </trkpt>
      <trkpt lat="42.557296" lon="1.763902">
        <ele>2012.1</ele>
        <time>2020-02-23T14:13:52Z</time>
      </trkpt>
      <trkpt lat="42.557374" lon="1.763956">
        <ele>2010.0</ele>
        <time>2020-02-23T14:14:01Z</time>
      </trkpt>
      <trkpt lat="42.557469" lon="1.763993">
        <ele>2007.4</ele>
        <time>2020-02-23T14:14:10Z</time>
      </trkpt>
      <trkpt lat="42.557552" lon="1.764020">
        <ele>2005.7</ele>
        <time>2020-02-23T14:14:19Z</time>
      </trkpt>
      <trkpt lat="42.557641" lon="1.764073">
        <ele>2003.1</ele>
        <time>2020-02-23T14:14:29Z</time>
      </trkpt>
      <trkpt lat="42.557732" lon="1.764140">
        <ele>2001.2</ele>
        <time>2020-02-23T14:14:38Z</time>
      </trkpt>
      <trkpt lat="42.557820" lon="1.764200">
        <ele>1998.4</ele>
        <time>2020-02-23T14:14:47Z</time>
      </trkpt>
      <trkpt lat="42.557902" lon="1.764246">
        <ele>1995.2</ele>
        <time>2020-02-23T14:14:56Z</time>
      </trkpt>
      <trkpt lat="42.557992" lon="1.764254">
        <ele>1991.1</ele>
        <time>2020-02-23T14:15:06Z</time>
      </trkpt>
      <trkpt lat="42.558078" lon="1.764259">
        <ele>1988.6</ele>
        <time>2020-02-23T14:15:16Z</time>
      </trkpt>
      <trkpt lat="42.558178" lon="1.764297">
        <ele>1987.8</ele>
        <time>2020-02-23T14:15:24Z</time>
      </trkpt>
      <trkpt lat="42.558270" lon="1.764309">
        <ele>1984.9</ele>
        <time>2020-02-23T14:15:32Z</time>
      </trkpt>
      <trkpt lat="42.558357" lon="1.764346">
        <ele>1983.0</ele>
        <time>2020-02-23T14:15:41Z</time>
      </trkpt>
      <trkpt lat="42.558402" lon="1.764455">
        <ele>1980.1</ele>
        <time>2020-02-23T14:15:50Z</time>
      </trkpt>
      <trkpt lat="42.558469" lon="1.764542">
        <ele>1978.4</ele>
        <time>2020-02-23T14:15:59Z</time>
      </trkpt>
      <trkpt lat="42.558541" lon="1.764474">
        <ele>1973.7</ele>
        <time>2020-02-23T14:16:14Z</time>
      </trkpt>
      <trkpt lat="42.558622" lon="1.764430">
        <ele>1970.9</ele>
        <time>2020-02-23T14:16:25Z</time>
      </trkpt>
      <trkpt lat="42.558703" lon="1.764393">
        <ele>1967.9</ele>
        <time>2020-02-23T14:16:34Z</time>
      </trkpt>
      <trkpt lat="42.558773" lon="1.764387">
        <ele>1965.1</ele>
        <time>2020-02-23T14:16:42Z</time>
      </trkpt>
      <trkpt lat="42.558871" lon="1.764395">
        <ele>1960.3</ele>
        <time>2020-02-23T14:16:51Z</time>
      </trkpt>
      <trkpt lat="42.558939" lon="1.764405">
        <ele>1957.1</ele>
        <time>2020-02-23T14:17:02Z</time>
      </trkpt>
      <trkpt lat="42.558968" lon="1.764494">
        <ele>1953.3</ele>
        <time>2020-02-23T14:17:15Z</time>
      </trkpt>
      <trkpt lat="42.559074" lon="1.764518">
        <ele>1950.5</ele>
        <time>2020-02-23T14:17:25Z</time>
      </trkpt>
      <trkpt lat="42.559166" lon="1.764530">
        <ele>1947.7</ele>
        <time>2020-02-23T14:17:33Z</time>
      </trkpt>
      <trkpt lat="42.559216" lon="1.764564">
        <ele>1943.4</ele>
        <time>2020-02-23T14:20:31Z</time>
      </trkpt>
      <trkpt lat="42.559311" lon="1.764586">
        <ele>1939.4</ele>
        <time>2020-02-23T14:20:41Z</time>
      </trkpt>
      <trkpt lat="42.559407" lon="1.764618">
        <ele>1936.4</ele>
        <time>2020-02-23T14:20:52Z</time>
      </trkpt>
      <trkpt lat="42.559507" lon="1.764621">
        <ele>1932.4</ele>
        <time>2020-02-23T14:21:03Z</time>
      </trkpt>
      <trkpt lat="42.559604" lon="1.764599">
        <ele>1929.9</ele>
        <time>2020-02-23T14:21:13Z</time>
      </trkpt>
      <trkpt lat="42.559680" lon="1.764610">
        <ele>1925.5</ele>
        <time>2020-02-23T14:21:23Z</time>
      </trkpt>
      <trkpt lat="42.559786" lon="1.764631">
        <ele>1922.7</ele>
        <time>2020-02-23T14:21:33Z</time>
      </trkpt>
      <trkpt lat="42.559868" lon="1.764679">
        <ele>1918.8</ele>
        <time>2020-02-23T14:21:44Z</time>
      </trkpt>
      <trkpt lat="42.559953" lon="1.764727">
        <ele>1915.1</ele>
        <time>2020-02-23T14:21:56Z</time>
      </trkpt>
      <trkpt lat="42.560056" lon="1.764713">
        <ele>1911.4</ele>
        <time>2020-02-23T14:22:08Z</time>
      </trkpt>
      <trkpt lat="42.560131" lon="1.764748">
        <ele>1906.4</ele>
        <time>2020-02-23T14:22:22Z</time>
      </trkpt>
      <trkpt lat="42.560208" lon="1.764682">
        <ele>1903.3</ele>
        <time>2020-02-23T14:22:51Z</time>
      </trkpt>
      <trkpt lat="42.560236" lon="1.764664">
        <ele>1894.2</ele>
        <time>2020-02-23T14:23:36Z</time>
      </trkpt>
    </trkseg>
  </trk>
</gpx>

